Observation data for Van Horn on 09/27/2020      Previous  Date  Next       Current Mesonet Observations  Soil Data  Daily Summary Page  Observations in Plain Language
KVA1 270500Z 25006KT 25/01 A2995 RMK A01 T02540005  RH  020%=      5-min Rain = 0
KVA1 270501Z 25006KT 25/01 A2995 RMK A01 T02540005  RH  020%=      5-min Rain = 0
KVA1 270502Z 25006KT 25/01 A2995 RMK A01 T02530005  RH  020%=      5-min Rain = 0
KVA1 270503Z 25005KT 25/01 A2995 RMK A01 T02530005  RH  020%=      5-min Rain = 0
KVA1 270504Z 25005KT 25/01 A2995 RMK A01 T02520006  RH  020%=      5-min Rain = 0
KVA1 270505Z 25005KT 25/01 A2995 RMK A01 T02520006  RH  020%=      5-min Rain = 0
KVA1 270506Z 25006KT 25/01 A2995 RMK A01 T02510006  RH  020%=      5-min Rain = 0
KVA1 270507Z 25006KT 25/01 A2995 RMK A01 T02510006  RH  020%=      5-min Rain = 0
KVA1 270508Z 24006KT 25/01 A2995 RMK A01 T02500006  RH  020%=      5-min Rain = 0
KVA1 270509Z 23006KT 25/01 A2995 RMK A01 T02490006  RH  020%=      5-min Rain = 0
KVA1 270510Z 24006KT 25/01 A2995 RMK A01 T02480007  RH  020%=      5-min Rain = 0
KVA1 270511Z 24007KT 25/01 A2995 RMK A01 T02470006  RH  021%=      5-min Rain = 0
KVA1 270512Z 24007KT 25/01 A2995 RMK A01 T02460006  RH  021%=      5-min Rain = 0
KVA1 270513Z 24007KT 25/01 A2995 RMK A01 T02470006  RH  021%=      5-min Rain = 0
KVA1 270514Z 24007KT 25/01 A2995 RMK A01 T02480006  RH  020%=      5-min Rain = 0
KVA1 270515Z 25007KT 25/01 A2995 RMK A01 T02490006  RH  020%=      5-min Rain = 0
KVA1 270516Z 24007KT 25/01 A2995 RMK A01 T02490006  RH  020%=      5-min Rain = 0
KVA1 270517Z 24007KT 25/01 A2995 RMK A01 T02500006  RH  020%=      5-min Rain = 0
KVA1 270518Z 25007KT 25/01 A2995 RMK A01 T02510006  RH  020%=      5-min Rain = 0
KVA1 270519Z 25007KT 25/01 A2995 RMK A01 T02510006  RH  020%=      5-min Rain = 0
KVA1 270520Z 24007KT 25/01 A2995 RMK A01 T02510006  RH  020%=      5-min Rain = 0
KVA1 270521Z 24006KT 25/01 A2995 RMK A01 T02520006  RH  020%=      5-min Rain = 0
KVA1 270522Z 25006KT 25/01 A2995 RMK A01 T02520006  RH  020%=      5-min Rain = 0
KVA1 270523Z 25006KT 25/01 A2995 RMK A01 T02510006  RH  020%=      5-min Rain = 0
KVA1 270524Z 25006KT 25/01 A2995 RMK A01 T02500006  RH  020%=      5-min Rain = 0
KVA1 270525Z 24006KT 25/01 A2995 RMK A01 T02490006  RH  020%=      5-min Rain = 0
KVA1 270526Z 24006KT 25/01 A2995 RMK A01 T02480006  RH  020%=      5-min Rain = 0
KVA1 270527Z 25006KT 25/01 A2995 RMK A01 T02470006  RH  020%=      5-min Rain = 0
KVA1 270528Z 24006KT 25/01 A2995 RMK A01 T02470006  RH  021%=      5-min Rain = 0
KVA1 270529Z 25007KT 25/01 A2995 RMK A01 T02460006  RH  021%=      5-min Rain = 0
KVA1 270530Z 25007KT 25/01 A2995 RMK A01 T02460007  RH  021%=      5-min Rain = 0
KVA1 270531Z 25007KT 25/01 A2995 RMK A01 T02460007  RH  021%=      5-min Rain = 0
KVA1 270532Z 25007KT 25/01 A2995 RMK A01 T02460006  RH  021%=      5-min Rain = 0
KVA1 270533Z 25007KT 25/01 A2995 RMK A01 T02470006  RH  021%=      5-min Rain = 0
KVA1 270534Z 25007KT 25/01 A2995 RMK A01 T02480006  RH  020%=      5-min Rain = 0
KVA1 270535Z 25006KT 25/01 A2995 RMK A01 T02490006  RH  020%=      5-min Rain = 0
KVA1 270536Z 25007KT 25/01 A2995 RMK A01 T02500007  RH  020%=      5-min Rain = 0
KVA1 270537Z 25006KT 25/01 A2995 RMK A01 T02510006  RH  020%=      5-min Rain = 0
KVA1 270538Z 26006KT 25/01 A2995 RMK A01 T02520007  RH  020%=      5-min Rain = 0
KVA1 270539Z 25006KT 25/01 A2995 RMK A01 T02530006  RH  020%=      5-min Rain = 0
KVA1 270540Z 25007KT 26/01 A2995 RMK A01 T02550006  RH  020%=      5-min Rain = 0
KVA1 270541Z 24005KT 26/01 A2995 RMK A01 T02560007  RH  020%=      5-min Rain = 0
KVA1 270542Z 25004KT 26/01 A2995 RMK A01 T02550008  RH  020%=      5-min Rain = 0
KVA1 270543Z 25004KT 25/01 A2995 RMK A01 T02500006  RH  020%=      5-min Rain = 0
KVA1 270544Z 24005KT 25/01 A2995 RMK A01 T02450006  RH  021%=      5-min Rain = 0
KVA1 270545Z 23006KT 24/01 A2995 RMK A01 T02420007  RH  021%=      5-min Rain = 0
KVA1 270546Z 24006KT 24/01 A2995 RMK A01 T02400006  RH  021%=      5-min Rain = 0
KVA1 270547Z 25006KT 24/01 A2995 RMK A01 T02390007  RH  022%=      5-min Rain = 0
KVA1 270548Z 24006KT 24/01 A2995 RMK A01 T02390007  RH  022%=      5-min Rain = 0
KVA1 270549Z 24006KT 24/01 A2995 RMK A01 T02390007  RH  022%=      5-min Rain = 0
KVA1 270550Z 24006KT 24/01 A2995 RMK A01 T02390007  RH  022%=      5-min Rain = 0
KVA1 270551Z 24005KT 24/01 A2995 RMK A01 T02390007  RH  022%=      5-min Rain = 0
KVA1 270552Z 24005KT 24/01 A2995 RMK A01 T02390008  RH  022%=      5-min Rain = 0
KVA1 270553Z 24006KT 24/01 A2995 RMK A01 T02390008  RH  022%=      5-min Rain = 0
KVA1 270554Z 24006KT 24/01 A2995 RMK A01 T02380007  RH  022%=      5-min Rain = 0
KVA1 270555Z 24006KT 24/01 A2995 RMK A01 T02380007  RH  022%=      5-min Rain = 0
KVA1 270556Z 24006KT 24/01 A2995 RMK A01 T02380007  RH  022%=      5-min Rain = 0
KVA1 270557Z 24007KT 24/01 A2995 RMK A01 T02380007  RH  022%=      5-min Rain = 0
KVA1 270558Z 24007KT 24/01 A2995 RMK A01 T02390008  RH  022%=      5-min Rain = 0
KVA1 270559Z 23007KT 24/01 A2995 RMK A01 T02400008  RH  022%=      5-min Rain = 0
KVA1 270600Z 23007KT 24/01 A2995 RMK A01 T02410008  RH  022%=      5-min Rain = 0
KVA1 270601Z 23007KT 24/01 A2995 RMK A01 T02420008  RH  021%=      5-min Rain = 0
KVA1 270602Z 23007KT 24/01 A2995 RMK A01 T02430008  RH  021%=      5-min Rain = 0
KVA1 270603Z 23007KT 24/01 A2995 RMK A01 T02430008  RH  021%=      5-min Rain = 0
KVA1 270604Z 24007KT 24/01 A2995 RMK A01 T02440008  RH  021%=      5-min Rain = 0
KVA1 270605Z 23007KT 25/01 A2995 RMK A01 T02450008  RH  021%=      5-min Rain = 0
KVA1 270606Z 23007KT 25/01 A2995 RMK A01 T02460008  RH  021%=      5-min Rain = 0
KVA1 270607Z 24007KT 25/01 A2995 RMK A01 T02480008  RH  021%=      5-min Rain = 0
KVA1 270608Z 24007KT 25/01 A2995 RMK A01 T02490008  RH  021%=      5-min Rain = 0
KVA1 270609Z 24006KT 25/01 A2995 RMK A01 T02510008  RH  020%=      5-min Rain = 0
KVA1 270610Z 23007KT 25/01 A2995 RMK A01 T02530008  RH  020%=      5-min Rain = 0
KVA1 270611Z 24006KT 25/01 A2995 RMK A01 T02540008  RH  020%=      5-min Rain = 0
KVA1 270612Z 23006KT 26/01 A2995 RMK A01 T02550008  RH  020%=      5-min Rain = 0
KVA1 270613Z 24007KT 26/01 A2995 RMK A01 T02560008  RH  020%=      5-min Rain = 0
KVA1 270614Z 23007KT 26/01 A2995 RMK A01 T02570008  RH  020%=      5-min Rain = 0
KVA1 270615Z 24008KT 26/01 A2995 RMK A01 T02580008  RH  020%=      5-min Rain = 0
KVA1 270616Z 24008KT 26/01 A2995 RMK A01 T02590008  RH  019%=      5-min Rain = 0
KVA1 270617Z 24008KT 26/01 A2995 RMK A01 T02610008  RH  019%=      5-min Rain = 0
KVA1 270618Z 24008KT 26/01 A2995 RMK A01 T02620009  RH  019%=      5-min Rain = 0
KVA1 270619Z 24007KT 26/01 A2995 RMK A01 T02610008  RH  019%=      5-min Rain = 0
KVA1 270620Z 24007KT 26/01 A2995 RMK A01 T02610008  RH  019%=      5-min Rain = 0
KVA1 270621Z 24007KT 26/01 A2995 RMK A01 T02620008  RH  019%=      5-min Rain = 0
KVA1 270622Z 24008KT 26/01 A2995 RMK A01 T02610008  RH  019%=      5-min Rain = 0
KVA1 270623Z 24007KT 26/01 A2995 RMK A01 T02610008  RH  019%=      5-min Rain = 0
KVA1 270624Z 25008KT 26/01 A2995 RMK A01 T02610008  RH  019%=      5-min Rain = 0
KVA1 270625Z 25008KT 26/01 A2995 RMK A01 T02610008  RH  019%=      5-min Rain = 0
KVA1 270626Z 24008KT 26/01 A2995 RMK A01 T02610008  RH  019%=      5-min Rain = 0
KVA1 270627Z 25007KT 26/01 A2995 RMK A01 T02610008  RH  019%=      5-min Rain = 0
KVA1 270628Z 25007KT 26/01 A2995 RMK A01 T02610008  RH  019%=      5-min Rain = 0
KVA1 270629Z 25007KT 26/01 A2995 RMK A01 T02600008  RH  019%=      5-min Rain = 0
KVA1 270630Z 24007KT 26/01 A2995 RMK A01 T02590008  RH  019%=      5-min Rain = 0
KVA1 270631Z 24007KT 26/01 A2995 RMK A01 T02580008  RH  019%=      5-min Rain = 0
KVA1 270632Z 24007KT 26/01 A2994 RMK A01 T02580008  RH  020%=      5-min Rain = 0
KVA1 270633Z 24007KT 26/01 A2994 RMK A01 T02580008  RH  020%=      5-min Rain = 0
KVA1 270634Z 24007KT 26/01 A2994 RMK A01 T02570008  RH  020%=      5-min Rain = 0
KVA1 270635Z 24007KT 26/01 A2994 RMK A01 T02570009  RH  020%=      5-min Rain = 0
KVA1 270636Z 25007KT 26/01 A2994 RMK A01 T02570009  RH  020%=      5-min Rain = 0
KVA1 270637Z 25007KT 26/01 A2994 RMK A01 T02570009  RH  020%=      5-min Rain = 0
KVA1 270638Z 25007KT 26/01 A2994 RMK A01 T02570008  RH  020%=      5-min Rain = 0
KVA1 270639Z 25009KT 26/01 A2994 RMK A01 T02580009  RH  020%=      5-min Rain = 0
KVA1 270640Z 25010KT 26/01 A2994 RMK A01 T02590009  RH  019%=      5-min Rain = 0
KVA1 270641Z 25009KT 26/01 A2994 RMK A01 T02600009  RH  019%=      5-min Rain = 0
KVA1 270642Z 24009KT 26/01 A2994 RMK A01 T02610009  RH  019%=      5-min Rain = 0
KVA1 270643Z 25009KT 26/01 A2994 RMK A01 T02620009  RH  019%=      5-min Rain = 0
KVA1 270644Z 25009KT 26/01 A2994 RMK A01 T02620009  RH  019%=      5-min Rain = 0
KVA1 270645Z 25010KT 26/01 A2994 RMK A01 T02620009  RH  019%=      5-min Rain = 0
KVA1 270646Z 25009KT 26/01 A2994 RMK A01 T02620009  RH  019%=      5-min Rain = 0
KVA1 270647Z 25009KT 26/01 A2994 RMK A01 T02620009  RH  019%=      5-min Rain = 0
KVA1 270648Z 25009KT 26/01 A2994 RMK A01 T02620009  RH  019%=      5-min Rain = 0
KVA1 270649Z 25010KT 26/01 A2994 RMK A01 T02610009  RH  019%=      5-min Rain = 0
KVA1 270650Z 25009KT 26/01 A2994 RMK A01 T02610009  RH  019%=      5-min Rain = 0
KVA1 270651Z 25008KT 26/01 A2994 RMK A01 T02610009  RH  019%=      5-min Rain = 0
KVA1 270652Z 25008KT 26/01 A2994 RMK A01 T02610008  RH  019%=      5-min Rain = 0
KVA1 270653Z 25008KT 26/01 A2994 RMK A01 T02600008  RH  019%=      5-min Rain = 0
KVA1 270654Z 25009KT 26/01 A2994 RMK A01 T02580008  RH  019%=      5-min Rain = 0
KVA1 270655Z 25008KT 26/01 A2994 RMK A01 T02580009  RH  020%=      5-min Rain = 0
KVA1 270656Z 25008KT 26/01 A2994 RMK A01 T02560008  RH  020%=      5-min Rain = 0
KVA1 270657Z 25008KT 26/01 A2994 RMK A01 T02550008  RH  020%=      5-min Rain = 0
KVA1 270658Z 25008KT 25/01 A2994 RMK A01 T02540008  RH  020%=      5-min Rain = 0
KVA1 270659Z 25008KT 25/01 A2994 RMK A01 T02540009  RH  020%=      5-min Rain = 0
KVA1 270700Z 25009KT 25/01 A2994 RMK A01 T02540009  RH  020%=      5-min Rain = 0
KVA1 270701Z 25008KT 25/01 A2994 RMK A01 T02530009  RH  020%=      5-min Rain = 0
KVA1 270702Z 25008KT 25/01 A2994 RMK A01 T02530009  RH  020%=      5-min Rain = 0
KVA1 270703Z 25007KT 25/01 A2994 RMK A01 T02520008  RH  020%=      5-min Rain = 0
KVA1 270704Z 25007KT 25/01 A2994 RMK A01 T02510009  RH  020%=      5-min Rain = 0
KVA1 270705Z 25008KT 25/01 A2994 RMK A01 T02500009  RH  021%=      5-min Rain = 0
KVA1 270706Z 25008KT 25/01 A2994 RMK A01 T02500009  RH  021%=      5-min Rain = 0
KVA1 270707Z 25008KT 25/01 A2994 RMK A01 T02490009  RH  021%=      5-min Rain = 0
KVA1 270708Z 25008KT 25/01 A2994 RMK A01 T02490009  RH  021%=      5-min Rain = 0
KVA1 270709Z 25009KT 25/01 A2994 RMK A01 T02490008  RH  021%=      5-min Rain = 0
KVA1 270710Z 25009KT 25/01 A2994 RMK A01 T02490009  RH  021%=      5-min Rain = 0
KVA1 270711Z 25009KT 25/01 A2994 RMK A01 T02490009  RH  021%=      5-min Rain = 0
KVA1 270712Z 25008KT 25/01 A2994 RMK A01 T02480009  RH  021%=      5-min Rain = 0
KVA1 270713Z 25009KT 25/01 A2994 RMK A01 T02480009  RH  021%=      5-min Rain = 0
KVA1 270714Z 25009KT 25/01 A2994 RMK A01 T02480009  RH  021%=      5-min Rain = 0
KVA1 270715Z 25008KT 25/01 A2994 RMK A01 T02470009  RH  021%=      5-min Rain = 0
KVA1 270716Z 25008KT 25/01 A2994 RMK A01 T02470008  RH  021%=      5-min Rain = 0
KVA1 270717Z 25007KT 25/01 A2994 RMK A01 T02470009  RH  021%=      5-min Rain = 0
KVA1 270718Z 25009KT 25/01 A2994 RMK A01 T02460009  RH  021%=      5-min Rain = 0
KVA1 270719Z 25009KT 25/01 A2994 RMK A01 T02460009  RH  021%=      5-min Rain = 0
KVA1 270720Z 25009KT 25/01 A2994 RMK A01 T02450009  RH  021%=      5-min Rain = 0
KVA1 270721Z 25009KT 25/01 A2994 RMK A01 T02450009  RH  021%=      5-min Rain = 0
KVA1 270722Z 25009KT 25/01 A2994 RMK A01 T02450008  RH  021%=      5-min Rain = 0
KVA1 270723Z 25008KT 25/01 A2994 RMK A01 T02460009  RH  021%=      5-min Rain = 0
KVA1 270724Z 25009KT 25/01 A2994 RMK A01 T02450008  RH  021%=      5-min Rain = 0
KVA1 270725Z 25009KT 25/01 A2994 RMK A01 T02460009  RH  021%=      5-min Rain = 0
KVA1 270726Z 25009KT 25/01 A2994 RMK A01 T02460009  RH  021%=      5-min Rain = 0
KVA1 270727Z 25008KT 25/01 A2994 RMK A01 T02460009  RH  021%=      5-min Rain = 0
KVA1 270728Z 25008KT 25/01 A2994 RMK A01 T02460009  RH  021%=      5-min Rain = 0
KVA1 270729Z 25009KT 25/01 A2994 RMK A01 T02460009  RH  021%=      5-min Rain = 0
KVA1 270730Z 25008KT 25/01 A2994 RMK A01 T02470009  RH  021%=      5-min Rain = 0
KVA1 270731Z 25008KT 25/01 A2994 RMK A01 T02470009  RH  021%=      5-min Rain = 0
KVA1 270732Z 25008KT 25/01 A2994 RMK A01 T02470009  RH  021%=      5-min Rain = 0
KVA1 270733Z 25008KT 25/01 A2994 RMK A01 T02460009  RH  021%=      5-min Rain = 0
KVA1 270734Z 25008KT 25/01 A2994 RMK A01 T02460009  RH  021%=      5-min Rain = 0
KVA1 270735Z 25007KT 25/01 A2994 RMK A01 T02460009  RH  021%=      5-min Rain = 0
KVA1 270736Z 25008KT 25/01 A2994 RMK A01 T02450009  RH  021%=      5-min Rain = 0
KVA1 270737Z 25007KT 25/01 A2994 RMK A01 T02450009  RH  021%=      5-min Rain = 0
KVA1 270738Z 25008KT 25/01 A2994 RMK A01 T02450009  RH  021%=      5-min Rain = 0
KVA1 270739Z 25007KT 24/01 A2994 RMK A01 T02440009  RH  021%=      5-min Rain = 0
KVA1 270740Z 25007KT 24/01 A2994 RMK A01 T02440009  RH  021%=      5-min Rain = 0
KVA1 270741Z 25007KT 24/01 A2994 RMK A01 T02430009  RH  021%=      5-min Rain = 0
KVA1 270742Z 25007KT 24/01 A2994 RMK A01 T02430009  RH  022%=      5-min Rain = 0
KVA1 270743Z 25007KT 24/01 A2994 RMK A01 T02430009  RH  022%=      5-min Rain = 0
KVA1 270744Z 25007KT 24/01 A2994 RMK A01 T02420009  RH  022%=      5-min Rain = 0
KVA1 270745Z 25008KT 24/01 A2994 RMK A01 T02420009  RH  022%=      5-min Rain = 0
KVA1 270746Z 25007KT 24/01 A2994 RMK A01 T02420009  RH  022%=      5-min Rain = 0
KVA1 270747Z 25007KT 24/01 A2994 RMK A01 T02420009  RH  022%=      5-min Rain = 0
KVA1 270748Z 25007KT 24/01 A2994 RMK A01 T02410009  RH  022%=      5-min Rain = 0
KVA1 270749Z 25007KT 24/01 A2994 RMK A01 T02410009  RH  022%=      5-min Rain = 0
KVA1 270750Z 26007KT 24/01 A2994 RMK A01 T02410009  RH  022%=      5-min Rain = 0
KVA1 270751Z 25007KT 24/01 A2994 RMK A01 T02400009  RH  022%=      5-min Rain = 0
KVA1 270752Z 25007KT 24/01 A2994 RMK A01 T02400009  RH  022%=      5-min Rain = 0
KVA1 270753Z 25007KT 24/01 A2994 RMK A01 T02400009  RH  022%=      5-min Rain = 0
KVA1 270754Z 25007KT 24/01 A2994 RMK A01 T02400009  RH  022%=      5-min Rain = 0
KVA1 270755Z 25007KT 24/01 A2994 RMK A01 T02390009  RH  022%=      5-min Rain = 0
KVA1 270756Z 25007KT 24/01 A2994 RMK A01 T02380009  RH  022%=      5-min Rain = 0
KVA1 270757Z 25007KT 24/01 A2994 RMK A01 T02380010  RH  022%=      5-min Rain = 0
KVA1 270758Z 25007KT 24/01 A2994 RMK A01 T02380009  RH  022%=      5-min Rain = 0
KVA1 270759Z 25007KT 24/01 A2994 RMK A01 T02380009  RH  022%=      5-min Rain = 0
KVA1 270800Z 25007KT 24/01 A2994 RMK A01 T02370009  RH  022%=      5-min Rain = 0
KVA1 270801Z 25007KT 24/01 A2994 RMK A01 T02370009  RH  022%=      5-min Rain = 0
KVA1 270802Z 25007KT 24/01 A2994 RMK A01 T02370009  RH  022%=      5-min Rain = 0
KVA1 270803Z 24007KT 24/01 A2994 RMK A01 T02370009  RH  022%=      5-min Rain = 0
KVA1 270804Z 25007KT 24/01 A2994 RMK A01 T02370010  RH  022%=      5-min Rain = 0
KVA1 270805Z 25007KT 24/01 A2994 RMK A01 T02370009  RH  022%=      5-min Rain = 0
KVA1 270806Z 24007KT 24/01 A2994 RMK A01 T02370009  RH  022%=      5-min Rain = 0
KVA1 270807Z 25007KT 24/01 A2994 RMK A01 T02370009  RH  022%=      5-min Rain = 0
KVA1 270808Z 25007KT 24/01 A2994 RMK A01 T02370009  RH  022%=      5-min Rain = 0
KVA1 270809Z 25007KT 24/01 A2994 RMK A01 T02370009  RH  022%=      5-min Rain = 0
KVA1 270810Z 25007KT 24/01 A2994 RMK A01 T02370009  RH  022%=      5-min Rain = 0
KVA1 270811Z 25007KT 24/01 A2994 RMK A01 T02370010  RH  022%=      5-min Rain = 0
KVA1 270812Z 25007KT 24/01 A2994 RMK A01 T02380010  RH  022%=      5-min Rain = 0
KVA1 270813Z 25006KT 24/01 A2994 RMK A01 T02380009  RH  022%=      5-min Rain = 0
KVA1 270814Z 25006KT 24/01 A2994 RMK A01 T02390009  RH  022%=      5-min Rain = 0
KVA1 270815Z 25005KT 24/01 A2994 RMK A01 T02390010  RH  022%=      5-min Rain = 0
KVA1 270816Z 25006KT 24/01 A2994 RMK A01 T02390009  RH  022%=      5-min Rain = 0
KVA1 270817Z 25006KT 24/01 A2994 RMK A01 T02390009  RH  022%=      5-min Rain = 0
KVA1 270818Z 25006KT 24/01 A2994 RMK A01 T02390010  RH  022%=      5-min Rain = 0
KVA1 270819Z 25006KT 24/01 A2994 RMK A01 T02390009  RH  022%=      5-min Rain = 0
KVA1 270820Z 25006KT 24/01 A2994 RMK A01 T02390009  RH  022%=      5-min Rain = 0
KVA1 270821Z 26006KT 24/01 A2994 RMK A01 T02390009  RH  022%=      5-min Rain = 0
KVA1 270822Z 25007KT 24/01 A2994 RMK A01 T02400009  RH  022%=      5-min Rain = 0
KVA1 270823Z 25006KT 24/01 A2994 RMK A01 T02420010  RH  022%=      5-min Rain = 0
KVA1 270824Z 26006KT 24/01 A2994 RMK A01 T02420010  RH  022%=      5-min Rain = 0
KVA1 270825Z 26006KT 24/01 A2994 RMK A01 T02430009  RH  022%=      5-min Rain = 0
KVA1 270826Z 26006KT 24/01 A2994 RMK A01 T02430010  RH  022%=      5-min Rain = 0
KVA1 270827Z 26006KT 24/01 A2994 RMK A01 T02430010  RH  022%=      5-min Rain = 0
KVA1 270828Z 25007KT 24/01 A2994 RMK A01 T02420010  RH  022%=      5-min Rain = 0
KVA1 270829Z 25006KT 24/01 A2994 RMK A01 T02420010  RH  022%=      5-min Rain = 0
KVA1 270830Z 25006KT 24/01 A2994 RMK A01 T02420010  RH  022%=      5-min Rain = 0
KVA1 270831Z 26006KT 24/01 A2994 RMK A01 T02420010  RH  022%=      5-min Rain = 0
KVA1 270832Z 26005KT 24/01 A2994 RMK A01 T02420010  RH  022%=      5-min Rain = 0
KVA1 270833Z 26005KT 24/01 A2994 RMK A01 T02410010  RH  022%=      5-min Rain = 0
KVA1 270834Z 25005KT 24/01 A2994 RMK A01 T02410010  RH  022%=      5-min Rain = 0
KVA1 270835Z 25007KT 24/01 A2994 RMK A01 T02400010  RH  022%=      5-min Rain = 0
KVA1 270836Z 25007KT 24/01 A2994 RMK A01 T02410010  RH  022%=      5-min Rain = 0
KVA1 270837Z 25009KT 24/01 A2994 RMK A01 T02420010  RH  022%=      5-min Rain = 0
KVA1 270838Z 25007KT 25/01 A2994 RMK A01 T02450010  RH  021%=      5-min Rain = 0
KVA1 270839Z 26007KT 25/01 A2994 RMK A01 T02470010  RH  021%=      5-min Rain = 0
KVA1 270840Z 26008KT 25/01 A2994 RMK A01 T02490010  RH  021%=      5-min Rain = 0
KVA1 270841Z 26008KT 25/01 A2994 RMK A01 T02490010  RH  021%=      5-min Rain = 0
KVA1 270842Z 26007KT 25/01 A2994 RMK A01 T02500010  RH  021%=      5-min Rain = 0
KVA1 270843Z 26007KT 25/01 A2994 RMK A01 T02510009  RH  021%=      5-min Rain = 0
KVA1 270844Z 26008KT 25/01 A2994 RMK A01 T02510010  RH  021%=      5-min Rain = 0
KVA1 270845Z 26007KT 25/01 A2994 RMK A01 T02500010  RH  021%=      5-min Rain = 0
KVA1 270846Z 26007KT 25/01 A2994 RMK A01 T02500010  RH  021%=      5-min Rain = 0
KVA1 270847Z 26007KT 25/01 A2994 RMK A01 T02500010  RH  021%=      5-min Rain = 0
KVA1 270848Z 26007KT 25/01 A2994 RMK A01 T02490010  RH  021%=      5-min Rain = 0
KVA1 270849Z 26007KT 25/01 A2994 RMK A01 T02490010  RH  021%=      5-min Rain = 0
KVA1 270850Z 26008KT 25/01 A2994 RMK A01 T02490010  RH  021%=      5-min Rain = 0
KVA1 270851Z 26008KT 25/01 A2994 RMK A01 T02510010  RH  021%=      5-min Rain = 0
KVA1 270852Z 26008KT 25/01 A2994 RMK A01 T02510010  RH  021%=      5-min Rain = 0
KVA1 270853Z 26007KT 25/01 A2994 RMK A01 T02520010  RH  021%=      5-min Rain = 0
KVA1 270854Z 26007KT 25/01 A2994 RMK A01 T02520010  RH  021%=      5-min Rain = 0
KVA1 270855Z 26007KT 25/01 A2994 RMK A01 T02520010  RH  021%=      5-min Rain = 0
KVA1 270856Z 26007KT 25/01 A2994 RMK A01 T02510010  RH  021%=      5-min Rain = 0
KVA1 270857Z 25006KT 25/01 A2994 RMK A01 T02500010  RH  021%=      5-min Rain = 0
KVA1 270858Z 25006KT 25/01 A2994 RMK A01 T02500010  RH  021%=      5-min Rain = 0
KVA1 270859Z 26006KT 25/01 A2994 RMK A01 T02490010  RH  021%=      5-min Rain = 0
KVA1 270900Z 26006KT 25/01 A2994 RMK A01 T02480010  RH  021%=      5-min Rain = 0
KVA1 270901Z 25006KT 25/01 A2994 RMK A01 T02470010  RH  021%=      5-min Rain = 0
KVA1 270902Z 25007KT 25/01 A2994 RMK A01 T02470010  RH  021%=      5-min Rain = 0
KVA1 270903Z 25007KT 25/01 A2994 RMK A01 T02460010  RH  021%=      5-min Rain = 0
KVA1 270904Z 25007KT 25/01 A2994 RMK A01 T02470011  RH  021%=      5-min Rain = 0
KVA1 270905Z 25007KT 25/01 A2994 RMK A01 T02460011  RH  021%=      5-min Rain = 0
KVA1 270906Z 25007KT 25/01 A2994 RMK A01 T02460011  RH  021%=      5-min Rain = 0
KVA1 270907Z 25007KT 25/01 A2994 RMK A01 T02460011  RH  021%=      5-min Rain = 0
KVA1 270908Z 25006KT 25/01 A2994 RMK A01 T02460011  RH  022%=      5-min Rain = 0
KVA1 270909Z 25005KT 24/01 A2994 RMK A01 T02440011  RH  022%=      5-min Rain = 0
KVA1 270910Z 25005KT 24/01 A2994 RMK A01 T02420011  RH  022%=      5-min Rain = 0
KVA1 270911Z 24005KT 24/01 A2994 RMK A01 T02400010  RH  022%=      5-min Rain = 0
KVA1 270912Z 24005KT 24/01 A2994 RMK A01 T02370010  RH  022%=      5-min Rain = 0
KVA1 270913Z 24005KT 24/01 A2994 RMK A01 T02360010  RH  023%=      5-min Rain = 0
KVA1 270914Z 23005KT 24/01 A2994 RMK A01 T02350011  RH  023%=      5-min Rain = 0
KVA1 270915Z 22006KT 23/01 A2994 RMK A01 T02340011  RH  023%=      5-min Rain = 0
KVA1 270916Z 22007KT 23/01 A2994 RMK A01 T02320010  RH  023%=      5-min Rain = 0
KVA1 270917Z 22006KT 23/01 A2994 RMK A01 T02270010  RH  024%=      5-min Rain = 0
KVA1 270918Z 22006KT 22/01 A2994 RMK A01 T02230009  RH  024%=      5-min Rain = 0
KVA1 270919Z 22006KT 22/01 A2994 RMK A01 T02200009  RH  025%=      5-min Rain = 0
KVA1 270920Z 22006KT 22/01 A2994 RMK A01 T02180009  RH  025%=      5-min Rain = 0
KVA1 270921Z 22005KT 22/01 A2994 RMK A01 T02170009  RH  025%=      5-min Rain = 0
KVA1 270922Z 22005KT 22/01 A2994 RMK A01 T02150009  RH  025%=      5-min Rain = 0
KVA1 270923Z 22005KT 21/01 A2994 RMK A01 T02140009  RH  026%=      5-min Rain = 0
KVA1 270924Z 21004KT 21/01 A2994 RMK A01 T02140009  RH  026%=      5-min Rain = 0
KVA1 270925Z 21004KT 21/01 A2994 RMK A01 T02130009  RH  026%=      5-min Rain = 0
KVA1 270926Z 20003KT 21/01 A2994 RMK A01 T02130009  RH  026%=      5-min Rain = 0
KVA1 270927Z 21002KT 21/01 A2994 RMK A01 T02120010  RH  026%=      5-min Rain = 0
KVA1 270928Z 17001KT 21/01 A2994 RMK A01 T02110009  RH  026%=      5-min Rain = 0
KVA1 270929Z 14002KT 21/01 A2994 RMK A01 T02110009  RH  026%=      5-min Rain = 0
KVA1 270930Z 11003KT 21/01 A2994 RMK A01 T02100010  RH  027%=      5-min Rain = 0
KVA1 270931Z 11003KT 21/01 A2994 RMK A01 T02080010  RH  027%=      5-min Rain = 0
KVA1 270932Z 12002KT 21/01 A2994 RMK A01 T02070010  RH  027%=      5-min Rain = 0
KVA1 270933Z 11003KT 21/01 A2994 RMK A01 T02070010  RH  027%=      5-min Rain = 0
KVA1 270934Z 12003KT 21/01 A2994 RMK A01 T02060010  RH  027%=      5-min Rain = 0
KVA1 270935Z 11004KT 21/01 A2994 RMK A01 T02050010  RH  027%=      5-min Rain = 0
KVA1 270936Z 12004KT 20/01 A2994 RMK A01 T02040010  RH  027%=      5-min Rain = 0
KVA1 270937Z 12003KT 20/01 A2994 RMK A01 T02030009  RH  028%=      5-min Rain = 0
KVA1 270938Z 12003KT 20/01 A2994 RMK A01 T02020010  RH  028%=      5-min Rain = 0
KVA1 270939Z 12003KT 20/01 A2994 RMK A01 T02020009  RH  028%=      5-min Rain = 0
KVA1 270940Z 13002KT 20/01 A2994 RMK A01 T02010009  RH  028%=      5-min Rain = 0
KVA1 270941Z 13003KT 20/01 A2994 RMK A01 T02010010  RH  028%=      5-min Rain = 0
KVA1 270942Z 13003KT 20/01 A2994 RMK A01 T02000009  RH  028%=      5-min Rain = 0
KVA1 270943Z 15003KT 20/01 A2994 RMK A01 T02010010  RH  028%=      5-min Rain = 0
KVA1 270944Z 15003KT 20/01 A2994 RMK A01 T02010010  RH  028%=      5-min Rain = 0
KVA1 270945Z 15003KT 20/01 A2994 RMK A01 T02010010  RH  028%=      5-min Rain = 0
KVA1 270946Z 15003KT 20/01 A2994 RMK A01 T02010010  RH  028%=      5-min Rain = 0
KVA1 270947Z 16003KT 20/01 A2994 RMK A01 T02010011  RH  028%=      5-min Rain = 0
KVA1 270948Z 14003KT 20/01 A2994 RMK A01 T02010010  RH  028%=      5-min Rain = 0
KVA1 270949Z 16003KT 20/01 A2994 RMK A01 T02010010  RH  028%=      5-min Rain = 0
KVA1 270950Z 14005KT 20/01 A2994 RMK A01 T02020010  RH  028%=      5-min Rain = 0
KVA1 270951Z 14003KT 20/01 A2994 RMK A01 T02020010  RH  028%=      5-min Rain = 0
KVA1 270952Z 14005KT 20/01 A2994 RMK A01 T02030010  RH  028%=      5-min Rain = 0
KVA1 270953Z 14005KT 20/01 A2994 RMK A01 T02040010  RH  028%=      5-min Rain = 0
KVA1 270954Z 15005KT 20/01 A2994 RMK A01 T02040010  RH  027%=      5-min Rain = 0
KVA1 270955Z 15006KT 21/01 A2994 RMK A01 T02050010  RH  027%=      5-min Rain = 0
KVA1 270956Z 14007KT 21/01 A2994 RMK A01 T02060010  RH  027%=      5-min Rain = 0
KVA1 270957Z 15007KT 21/01 A2994 RMK A01 T02070010  RH  027%=      5-min Rain = 0
KVA1 270958Z 15008KT 21/01 A2994 RMK A01 T02070010  RH  027%=      5-min Rain = 0
KVA1 270959Z 15008KT 21/01 A2994 RMK A01 T02080010  RH  027%=      5-min Rain = 0
KVA1 271000Z 15008KT 21/01 A2994 RMK A01 T02100011  RH  027%=      5-min Rain = 0
KVA1 271001Z 15008KT 21/01 A2994 RMK A01 T02100011  RH  027%=      5-min Rain = 0
KVA1 271002Z 15007KT 21/01 A2994 RMK A01 T02100011  RH  027%=      5-min Rain = 0
KVA1 271003Z 15008KT 21/01 A2994 RMK A01 T02100011  RH  027%=      5-min Rain = 0
KVA1 271004Z 15008KT 21/01 A2994 RMK A01 T02090011  RH  027%=      5-min Rain = 0
KVA1 271005Z 15008KT 21/01 A2994 RMK A01 T02100010  RH  026%=      5-min Rain = 0
KVA1 271006Z 15008KT 21/01 A2994 RMK A01 T02100010  RH  026%=      5-min Rain = 0
KVA1 271007Z 15008KT 21/01 A2994 RMK A01 T02100010  RH  026%=      5-min Rain = 0
KVA1 271008Z 15007KT 21/01 A2994 RMK A01 T02100011  RH  027%=      5-min Rain = 0
KVA1 271009Z 15007KT 21/01 A2994 RMK A01 T02100011  RH  027%=      5-min Rain = 0
KVA1 271010Z 15006KT 21/01 A2994 RMK A01 T02090010  RH  027%=      5-min Rain = 0
KVA1 271011Z 14008KT 21/01 A2994 RMK A01 T02080010  RH  027%=      5-min Rain = 0
KVA1 271012Z 14006KT 21/01 A2994 RMK A01 T02090010  RH  027%=      5-min Rain = 0
KVA1 271013Z 14007KT 21/01 A2994 RMK A01 T02090011  RH  027%=      5-min Rain = 0
KVA1 271014Z 14007KT 21/01 A2994 RMK A01 T02090011  RH  027%=      5-min Rain = 0
KVA1 271015Z 13007KT 21/01 A2994 RMK A01 T02090010  RH  027%=      5-min Rain = 0
KVA1 271016Z 14006KT 21/01 A2994 RMK A01 T02090010  RH  027%=      5-min Rain = 0
KVA1 271017Z 13004KT 21/01 A2994 RMK A01 T02080010  RH  027%=      5-min Rain = 0
KVA1 271018Z 13005KT 21/01 A2994 RMK A01 T02090010  RH  027%=      5-min Rain = 0
KVA1 271019Z 13008KT 21/01 A2994 RMK A01 T02090011  RH  027%=      5-min Rain = 0
KVA1 271020Z 14008KT 21/01 A2994 RMK A01 T02100011  RH  027%=      5-min Rain = 0
KVA1 271021Z 14007KT 21/01 A2994 RMK A01 T02110011  RH  026%=      5-min Rain = 0
KVA1 271022Z 14009KT 21/01 A2994 RMK A01 T02120010  RH  026%=      5-min Rain = 0
KVA1 271023Z 14009KT 21/01 A2994 RMK A01 T02120011  RH  026%=      5-min Rain = 0
KVA1 271024Z 13010KT 21/01 A2994 RMK A01 T02120011  RH  026%=      5-min Rain = 0
KVA1 271025Z 13007KT 21/01 A2994 RMK A01 T02130011  RH  026%=      5-min Rain = 0
KVA1 271026Z 16007KT 21/01 A2994 RMK A01 T02130011  RH  026%=      5-min Rain = 0
KVA1 271027Z 15006KT 22/01 A2994 RMK A01 T02180014  RH  026%=      5-min Rain = 0
KVA1 271028Z 13006KT 22/01 A2994 RMK A01 T02220012  RH  025%=      5-min Rain = 0
KVA1 271029Z 16004KT 22/01 A2994 RMK A01 T02230012  RH  025%=      5-min Rain = 0
KVA1 271030Z 17006KT 22/01 A2994 RMK A01 T02240013  RH  025%=      5-min Rain = 0
KVA1 271031Z 13004KT 22/01 A2994 RMK A01 T02240012  RH  025%=      5-min Rain = 0
KVA1 271032Z 14008KT 22/01 A2994 RMK A01 T02240012  RH  025%=      5-min Rain = 0
KVA1 271033Z 14006KT 22/01 A2994 RMK A01 T02220011  RH  025%=      5-min Rain = 0
KVA1 271034Z 15005KT 22/01 A2994 RMK A01 T02180011  RH  025%=      5-min Rain = 0
KVA1 271035Z 16006KT 21/01 A2994 RMK A01 T02140011  RH  026%=      5-min Rain = 0
KVA1 271036Z 16006KT 21/01 A2994 RMK A01 T02110011  RH  026%=      5-min Rain = 0
KVA1 271037Z 15004KT 21/01 A2994 RMK A01 T02120013  RH  027%=      5-min Rain = 0
KVA1 271038Z 17005KT 22/01 A2994 RMK A01 T02190014  RH  026%=      5-min Rain = 0
KVA1 271039Z 15006KT 22/01 A2994 RMK A01 T02200013  RH  025%=      5-min Rain = 0
KVA1 271040Z 17006KT 22/01 A2994 RMK A01 T02190012  RH  025%=      5-min Rain = 0
KVA1 271041Z 16007KT 22/01 A2994 RMK A01 T02180013  RH  026%=      5-min Rain = 0
KVA1 271042Z 17005KT 22/01 A2994 RMK A01 T02180013  RH  026%=      5-min Rain = 0
KVA1 271043Z 17006KT 22/01 A2994 RMK A01 T02170013  RH  026%=      5-min Rain = 0
KVA1 271044Z 16005KT 22/01 A2994 RMK A01 T02160012  RH  026%=      5-min Rain = 0
KVA1 271045Z 16005KT 21/01 A2994 RMK A01 T02140012  RH  026%=      5-min Rain = 0
KVA1 271046Z 15008KT 21/01 A2994 RMK A01 T02120012  RH  026%=      5-min Rain = 0
KVA1 271047Z 16008KT 21/01 A2994 RMK A01 T02090011  RH  027%=      5-min Rain = 0
KVA1 271048Z 16009KT 21/01 A2994 RMK A01 T02050010  RH  027%=      5-min Rain = 0
KVA1 271049Z 16009KT 20/01 A2994 RMK A01 T02020010  RH  028%=      5-min Rain = 0
KVA1 271050Z 16008KT 20/01 A2994 RMK A01 T02000011  RH  028%=      5-min Rain = 0
KVA1 271051Z 16009KT 20/01 A2994 RMK A01 T01980011  RH  029%=      5-min Rain = 0
KVA1 271052Z 16008KT 20/01 A2994 RMK A01 T01970011  RH  029%=      5-min Rain = 0
KVA1 271053Z 16008KT 20/01 A2994 RMK A01 T01970011  RH  029%=      5-min Rain = 0
KVA1 271054Z 16009KT 20/01 A2994 RMK A01 T01960011  RH  029%=      5-min Rain = 0
KVA1 271055Z 15009KT 20/01 A2994 RMK A01 T01950011  RH  029%=      5-min Rain = 0
KVA1 271056Z 15009KT 19/01 A2994 RMK A01 T01940011  RH  029%=      5-min Rain = 0
KVA1 271057Z 16009KT 19/01 A2994 RMK A01 T01920011  RH  030%=      5-min Rain = 0
KVA1 271058Z 16009KT 19/01 A2994 RMK A01 T01910010  RH  030%=      5-min Rain = 0
KVA1 271059Z 16009KT 19/01 A2994 RMK A01 T01900011  RH  030%=      5-min Rain = 0
KVA1 271100Z 16009KT 19/01 A2994 RMK A01 T01890011  RH  030%=      5-min Rain = 0
KVA1 271101Z 15008KT 19/01 A2994 RMK A01 T01880011  RH  030%=      5-min Rain = 0
KVA1 271102Z 15008KT 19/01 A2994 RMK A01 T01880011  RH  031%=      5-min Rain = 0
KVA1 271103Z 15008KT 19/01 A2994 RMK A01 T01880011  RH  031%=      5-min Rain = 0
KVA1 271104Z 15008KT 19/01 A2994 RMK A01 T01880011  RH  031%=      5-min Rain = 0
KVA1 271105Z 16007KT 19/01 A2994 RMK A01 T01880012  RH  031%=      5-min Rain = 0
KVA1 271106Z 15007KT 19/01 A2994 RMK A01 T01880011  RH  031%=      5-min Rain = 0
KVA1 271107Z 16006KT 19/01 A2994 RMK A01 T01880012  RH  031%=      5-min Rain = 0
KVA1 271108Z 16005KT 19/01 A2994 RMK A01 T01900013  RH  031%=      5-min Rain = 0
KVA1 271109Z 16004KT 19/01 A2994 RMK A01 T01910013  RH  030%=      5-min Rain = 0
KVA1 271110Z 15004KT 19/01 A2994 RMK A01 T01920013  RH  030%=      5-min Rain = 0
KVA1 271111Z 16002KT 19/01 A2994 RMK A01 T01920012  RH  030%=      5-min Rain = 0
KVA1 271112Z 16002KT 19/01 A2994 RMK A01 T01930013  RH  030%=      5-min Rain = 0
KVA1 271113Z 09002KT 19/01 A2995 RMK A01 T01930013  RH  030%=      5-min Rain = 0
KVA1 271114Z 08003KT 19/01 A2995 RMK A01 T01920012  RH  030%=      5-min Rain = 0
KVA1 271115Z 07007KT 19/01 A2995 RMK A01 T01920013  RH  030%=      5-min Rain = 0
KVA1 271116Z 07007KT 19/01 A2995 RMK A01 T01930014  RH  030%=      5-min Rain = 0
KVA1 271117Z 10006KT 19/01 A2995 RMK A01 T01930013  RH  030%=      5-min Rain = 0
KVA1 271118Z 10005KT 20/01 A2995 RMK A01 T01960014  RH  030%=      5-min Rain = 0
KVA1 271119Z 10008KT 20/01 A2995 RMK A01 T01970014  RH  029%=      5-min Rain = 0
KVA1 271120Z 11008KT 20/01 A2995 RMK A01 T01970014  RH  030%=      5-min Rain = 0
KVA1 271121Z 11008KT 20/01 A2995 RMK A01 T01970014  RH  030%=      5-min Rain = 0
KVA1 271122Z 10005KT 20/01 A2995 RMK A01 T01990014  RH  029%=      5-min Rain = 0
KVA1 271123Z 00007G14KT 20/01 A2995 RMK A01 T02000014  RH  029%=      5-min Rain = 0
KVA1 271124Z 34005KT 21/02 A2995 RMK A01 T02130019  RH  028%=      5-min Rain = 0
KVA1 271125Z 02005KT 23/02 A2995 RMK A01 T02320021  RH  025%=      5-min Rain = 0
KVA1 271126Z 05004KT 24/02 A2995 RMK A01 T02370019  RH  024%=      5-min Rain = 0
KVA1 271127Z 29004KT 24/02 A2995 RMK A01 T02390018  RH  023%=      5-min Rain = 0
KVA1 271128Z 28005KT 24/02 A2995 RMK A01 T02350015  RH  024%=      5-min Rain = 0
KVA1 271129Z 30004KT 23/02 A2995 RMK A01 T02300015  RH  024%=      5-min Rain = 0
KVA1 271130Z 30006KT 23/02 A2996 RMK A01 T02340018  RH  024%=      5-min Rain = 0
KVA1 271131Z 29008KT 24/02 A2996 RMK A01 T02400019  RH  023%=      5-min Rain = 0
KVA1 271132Z 30007KT 24/02 A2996 RMK A01 T02420018  RH  023%=      5-min Rain = 0
KVA1 271133Z 29006KT 25/02 A2996 RMK A01 T02500020  RH  022%=      5-min Rain = 0
KVA1 271134Z 29011KT 25/02 A2996 RMK A01 T02530020  RH  022%=      5-min Rain = 0
KVA1 271135Z 28008KT 25/02 A2996 RMK A01 T02530019  RH  022%=      5-min Rain = 0
KVA1 271136Z 28012KT 25/02 A2996 RMK A01 T02540019  RH  022%=      5-min Rain = 0
KVA1 271137Z 29011KT 26/02 A2996 RMK A01 T02560018  RH  021%=      5-min Rain = 0
KVA1 271138Z 30006KT 26/02 A2996 RMK A01 T02610018  RH  021%=      5-min Rain = 0
KVA1 271139Z 26006KT 26/02 A2996 RMK A01 T02640019  RH  020%=      5-min Rain = 0
KVA1 271140Z 27006KT 26/02 A2996 RMK A01 T02620017  RH  020%=      5-min Rain = 0
KVA1 271141Z 28008KT 26/02 A2996 RMK A01 T02580017  RH  021%=      5-min Rain = 0
KVA1 271142Z 28010KT 26/02 A2996 RMK A01 T02560017  RH  021%=      5-min Rain = 0
KVA1 271143Z 27010KT 26/02 A2996 RMK A01 T02560017  RH  021%=      5-min Rain = 0
KVA1 271144Z 28007KT 26/02 A2996 RMK A01 T02560018  RH  021%=      5-min Rain = 0
KVA1 271145Z 28006KT 25/02 A2996 RMK A01 T02540017  RH  021%=      5-min Rain = 0
KVA1 271146Z 28007KT 25/02 A2996 RMK A01 T02530017  RH  021%=      5-min Rain = 0
KVA1 271147Z 28007KT 25/02 A2996 RMK A01 T02520017  RH  022%=      5-min Rain = 0
KVA1 271148Z 28006KT 25/02 A2996 RMK A01 T02510017  RH  022%=      5-min Rain = 0
KVA1 271149Z 29007KT 25/02 A2996 RMK A01 T02500018  RH  022%=      5-min Rain = 0
KVA1 271150Z 28007KT 25/02 A2996 RMK A01 T02490017  RH  022%=      5-min Rain = 0
KVA1 271151Z 28006KT 25/02 A2996 RMK A01 T02480017  RH  022%=      5-min Rain = 0
KVA1 271152Z 27005KT 25/02 A2996 RMK A01 T02460017  RH  022%=      5-min Rain = 0
KVA1 271153Z 27006KT 24/02 A2996 RMK A01 T02440017  RH  023%=      5-min Rain = 0
KVA1 271154Z 26007KT 24/02 A2996 RMK A01 T02410016  RH  023%=      5-min Rain = 0
KVA1 271155Z 26007KT 24/02 A2996 RMK A01 T02400017  RH  023%=      5-min Rain = 0
KVA1 271156Z 26007KT 24/02 A2996 RMK A01 T02400017  RH  023%=      5-min Rain = 0
KVA1 271157Z 26008KT 24/02 A2996 RMK A01 T02410018  RH  023%=      5-min Rain = 0
KVA1 271158Z 25008KT 24/02 A2996 RMK A01 T02410017  RH  023%=      5-min Rain = 0
KVA1 271159Z 25008KT 24/02 A2996 RMK A01 T02380017  RH  023%=      5-min Rain = 0
KVA1 271200Z 25008KT 24/02 A2996 RMK A01 T02360017  RH  024%=      5-min Rain = 0
KVA1 271201Z 25008KT 23/02 A2996 RMK A01 T02340017  RH  024%=      5-min Rain = 0
KVA1 271202Z 26008KT 23/02 A2996 RMK A01 T02340017  RH  024%=      5-min Rain = 0
KVA1 271203Z 25008KT 23/02 A2996 RMK A01 T02340017  RH  024%=      5-min Rain = 0
KVA1 271204Z 25007KT 23/02 A2996 RMK A01 T02340017  RH  024%=      5-min Rain = 0
KVA1 271205Z 26007KT 23/02 A2996 RMK A01 T02330017  RH  024%=      5-min Rain = 0
KVA1 271206Z 25008KT 23/02 A2996 RMK A01 T02330017  RH  024%=      5-min Rain = 0
KVA1 271207Z 26009KT 23/02 A2996 RMK A01 T02340018  RH  024%=      5-min Rain = 0
KVA1 271208Z 26010KT 24/02 A2996 RMK A01 T02370018  RH  024%=      5-min Rain = 0
KVA1 271209Z 26008KT 24/02 A2996 RMK A01 T02430019  RH  023%=      5-min Rain = 0
KVA1 271210Z 25006KT 25/02 A2996 RMK A01 T02450019  RH  023%=      5-min Rain = 0
KVA1 271211Z 25007KT 24/02 A2996 RMK A01 T02430017  RH  023%=      5-min Rain = 0
KVA1 271212Z 25008KT 24/02 A2996 RMK A01 T02400017  RH  023%=      5-min Rain = 0
KVA1 271213Z 25008KT 24/02 A2996 RMK A01 T02420018  RH  023%=      5-min Rain = 0
KVA1 271214Z 24008KT 25/02 A2996 RMK A01 T02450018  RH  023%=      5-min Rain = 0
KVA1 271215Z 25008KT 25/02 A2996 RMK A01 T02450018  RH  023%=      5-min Rain = 0
KVA1 271216Z 25009KT 24/02 A2996 RMK A01 T02440017  RH  023%=      5-min Rain = 0
KVA1 271217Z 25008KT 24/02 A2996 RMK A01 T02420017  RH  023%=      5-min Rain = 0
KVA1 271218Z 24008KT 24/02 A2996 RMK A01 T02420017  RH  023%=      5-min Rain = 0
KVA1 271219Z 24007KT 24/02 A2996 RMK A01 T02420017  RH  023%=      5-min Rain = 0
KVA1 271220Z 24006KT 24/02 A2996 RMK A01 T02420017  RH  023%=      5-min Rain = 0
KVA1 271221Z 23005KT 24/02 A2996 RMK A01 T02410017  RH  023%=      5-min Rain = 0
KVA1 271222Z 25006KT 24/02 A2996 RMK A01 T02400018  RH  023%=      5-min Rain = 0
KVA1 271223Z 25006KT 24/02 A2997 RMK A01 T02390017  RH  023%=      5-min Rain = 0
KVA1 271224Z 25005KT 24/02 A2997 RMK A01 T02400018  RH  023%=      5-min Rain = 0
KVA1 271225Z 24004KT 24/02 A2997 RMK A01 T02400017  RH  023%=      5-min Rain = 0
KVA1 271226Z 24004KT 24/02 A2997 RMK A01 T02400018  RH  023%=      5-min Rain = 0
KVA1 271227Z 23003KT 24/02 A2997 RMK A01 T02400017  RH  023%=      5-min Rain = 0
KVA1 271228Z 24003KT 24/02 A2997 RMK A01 T02400018  RH  023%=      5-min Rain = 0
KVA1 271229Z 25004KT 24/02 A2997 RMK A01 T02400018  RH  023%=      5-min Rain = 0
KVA1 271230Z 25005KT 24/02 A2997 RMK A01 T02390017  RH  023%=      5-min Rain = 0
KVA1 271231Z 26004KT 24/02 A2997 RMK A01 T02400017  RH  023%=      5-min Rain = 0
KVA1 271232Z 27003KT 24/02 A2997 RMK A01 T02390017  RH  023%=      5-min Rain = 0
KVA1 271233Z 22002KT 24/02 A2997 RMK A01 T02390017  RH  023%=      5-min Rain = 0
KVA1 271234Z 22002KT 24/02 A2997 RMK A01 T02390017  RH  023%=      5-min Rain = 0
KVA1 271235Z 18003KT 24/02 A2997 RMK A01 T02390018  RH  023%=      5-min Rain = 0
KVA1 271236Z 18003KT 24/02 A2997 RMK A01 T02380018  RH  024%=      5-min Rain = 0
KVA1 271237Z 19003KT 24/02 A2997 RMK A01 T02370018  RH  024%=      5-min Rain = 0
KVA1 271238Z 19004KT 24/02 A2997 RMK A01 T02370018  RH  024%=      5-min Rain = 0
KVA1 271239Z 20003KT 24/02 A2998 RMK A01 T02380017  RH  024%=      5-min Rain = 0
KVA1 271240Z 00000KT 24/02 A2998 RMK A01 T02400017  RH  023%=      5-min Rain = 0
KVA1 271241Z 03002KT 24/02 A2998 RMK A01 T02410017  RH  023%=      5-min Rain = 0
KVA1 271242Z 02004KT 24/02 A2998 RMK A01 T02410017  RH  023%=      5-min Rain = 0
KVA1 271243Z 04003KT 24/02 A2998 RMK A01 T02420017  RH  023%=      5-min Rain = 0
KVA1 271244Z 09003KT 25/02 A2998 RMK A01 T02450017  RH  023%=      5-min Rain = 0
KVA1 271245Z 11003KT 25/02 A2998 RMK A01 T02450017  RH  022%=      5-min Rain = 0
KVA1 271246Z 11005KT 25/02 A2998 RMK A01 T02450017  RH  022%=      5-min Rain = 0
KVA1 271247Z 12005KT 25/02 A2998 RMK A01 T02450018  RH  023%=      5-min Rain = 0
KVA1 271248Z 13007KT 24/02 A2998 RMK A01 T02430017  RH  023%=      5-min Rain = 0
KVA1 271249Z 11005KT 24/02 A2998 RMK A01 T02420017  RH  023%=      5-min Rain = 0
KVA1 271250Z 12005KT 24/02 A2998 RMK A01 T02420017  RH  023%=      5-min Rain = 0
KVA1 271251Z 16006KT 24/02 A2998 RMK A01 T02440018  RH  023%=      5-min Rain = 0
KVA1 271252Z 15007KT 24/02 A2998 RMK A01 T02420018  RH  023%=      5-min Rain = 0
KVA1 271253Z 16008KT 24/02 A2998 RMK A01 T02380018  RH  024%=      5-min Rain = 0
KVA1 271254Z 16007KT 24/02 A2998 RMK A01 T02360017  RH  024%=      5-min Rain = 0
KVA1 271255Z 15006KT 24/02 A2998 RMK A01 T02360017  RH  024%=      5-min Rain = 0
KVA1 271256Z 11006KT 24/02 A2998 RMK A01 T02360017  RH  024%=      5-min Rain = 0
KVA1 271257Z 03004KT 24/02 A2998 RMK A01 T02400017  RH  023%=      5-min Rain = 0
KVA1 271258Z 31004KT 25/02 A2998 RMK A01 T02460017  RH  022%=      5-min Rain = 0
KVA1 271259Z 24007KT 25/02 A2998 RMK A01 T02470017  RH  022%=      5-min Rain = 0
KVA1 271300Z 26012KT 24/02 A2998 RMK A01 T02410016  RH  023%=      5-min Rain = 0
KVA1 271301Z 26011KT 24/02 A2998 RMK A01 T02400016  RH  023%=      5-min Rain = 0
KVA1 271302Z 28014KT 24/02 A2998 RMK A01 T02410017  RH  023%=      5-min Rain = 0
KVA1 271303Z 26012KT 25/02 A2998 RMK A01 T02480019  RH  022%=      5-min Rain = 0
KVA1 271304Z 25011KT 25/02 A2997 RMK A01 T02530018  RH  022%=      5-min Rain = 0
KVA1 271305Z 25008KT 26/02 A2998 RMK A01 T02560017  RH  021%=      5-min Rain = 0
KVA1 271306Z 26009KT 25/02 A2998 RMK A01 T02540017  RH  021%=      5-min Rain = 0
KVA1 271307Z 27010KT 25/02 A2998 RMK A01 T02480016  RH  022%=      5-min Rain = 0
KVA1 271308Z 27012KT 25/02 A2998 RMK A01 T02460016  RH  022%=      5-min Rain = 0
KVA1 271309Z 25011KT 25/02 A2997 RMK A01 T02460017  RH  022%=      5-min Rain = 0
KVA1 271310Z 25009KT 25/02 A2997 RMK A01 T02480017  RH  022%=      5-min Rain = 0
KVA1 271311Z 26012KT 25/02 A2998 RMK A01 T02510018  RH  022%=      5-min Rain = 0
KVA1 271312Z 26011KT 25/02 A2998 RMK A01 T02510017  RH  022%=      5-min Rain = 0
KVA1 271313Z 26014KT 25/02 A2998 RMK A01 T02490017  RH  022%=      5-min Rain = 0
KVA1 271314Z 26012KT 25/02 A2997 RMK A01 T02490017  RH  022%=      5-min Rain = 0
KVA1 271315Z 24010G16KT 25/02 A2997 RMK A01 T02520017  RH  022%=      5-min Rain = 0
KVA1 271316Z 26010KT 25/02 A2998 RMK A01 T02520017  RH  022%=      5-min Rain = 0
KVA1 271317Z 27010KT 25/02 A2998 RMK A01 T02500017  RH  022%=      5-min Rain = 0
KVA1 271318Z 26014KT 25/02 A2997 RMK A01 T02480017  RH  022%=      5-min Rain = 0
KVA1 271319Z 26012KT 25/02 A2997 RMK A01 T02480017  RH  022%=      5-min Rain = 0
KVA1 271320Z 26013KT 25/02 A2997 RMK A01 T02510018  RH  022%=      5-min Rain = 0
KVA1 271321Z 26012KT 25/02 A2997 RMK A01 T02510018  RH  022%=      5-min Rain = 0
KVA1 271322Z 26011KT 25/02 A2998 RMK A01 T02510018  RH  022%=      5-min Rain = 0
KVA1 271323Z 26011KT 25/02 A2998 RMK A01 T02490017  RH  022%=      5-min Rain = 0
KVA1 271324Z 27016KT 25/02 A2998 RMK A01 T02480018  RH  022%=      5-min Rain = 0
KVA1 271325Z 25015KT 25/02 A2998 RMK A01 T02490018  RH  022%=      5-min Rain = 0
KVA1 271326Z 26014KT 25/02 A2997 RMK A01 T02490018  RH  022%=      5-min Rain = 0
KVA1 271327Z 26014G19KT 25/02 A2997 RMK A01 T02510017  RH  022%=      5-min Rain = 0
KVA1 271328Z 27014KT 25/02 A2998 RMK A01 T02520017  RH  022%=      5-min Rain = 0
KVA1 271329Z 26015KT 25/02 A2998 RMK A01 T02530017  RH  021%=      5-min Rain = 0
KVA1 271330Z 26012KT 25/02 A2998 RMK A01 T02540017  RH  021%=      5-min Rain = 0
KVA1 271331Z 26012KT 25/02 A2998 RMK A01 T02540018  RH  021%=      5-min Rain = 0
KVA1 271332Z 27014KT 25/02 A2998 RMK A01 T02530018  RH  022%=      5-min Rain = 0
KVA1 271333Z 27013KT 25/02 A2998 RMK A01 T02540018  RH  021%=      5-min Rain = 0
KVA1 271334Z 27010KT 26/02 A2998 RMK A01 T02560017  RH  021%=      5-min Rain = 0
KVA1 271335Z 27013KT 26/02 A2998 RMK A01 T02570018  RH  021%=      5-min Rain = 0
KVA1 271336Z 27012KT 26/02 A2998 RMK A01 T02550018  RH  021%=      5-min Rain = 0
KVA1 271337Z 27012KT 25/02 A2998 RMK A01 T02540019  RH  022%=      5-min Rain = 0
KVA1 271338Z 26013KT 25/02 A2998 RMK A01 T02530019  RH  022%=      5-min Rain = 0
KVA1 271339Z 26015KT 25/02 A2998 RMK A01 T02540018  RH  021%=      5-min Rain = 0
KVA1 271340Z 27013G18KT 26/02 A2998 RMK A01 T02550018  RH  021%=      5-min Rain = 0
KVA1 271341Z 26014KT 26/02 A2998 RMK A01 T02560018  RH  021%=      5-min Rain = 0
KVA1 271342Z 27014KT 26/02 A2998 RMK A01 T02560018  RH  021%=      5-min Rain = 0
KVA1 271343Z 26013KT 26/02 A2998 RMK A01 T02560018  RH  021%=      5-min Rain = 0
KVA1 271344Z 26012KT 26/02 A2998 RMK A01 T02550018  RH  021%=      5-min Rain = 0
KVA1 271345Z 26011KT 26/02 A2998 RMK A01 T02550019  RH  021%=      5-min Rain = 0
KVA1 271346Z 26011KT 25/02 A2998 RMK A01 T02540019  RH  022%=      5-min Rain = 0
KVA1 271347Z 26012KT 25/02 A2998 RMK A01 T02540020  RH  022%=      5-min Rain = 0
KVA1 271348Z 26012KT 25/02 A2998 RMK A01 T02530019  RH  022%=      5-min Rain = 0
KVA1 271349Z 26013KT 25/02 A2998 RMK A01 T02530019  RH  022%=      5-min Rain = 0
KVA1 271350Z 25012KT 25/02 A2998 RMK A01 T02540018  RH  022%=      5-min Rain = 0
KVA1 271351Z 25011KT 25/02 A2998 RMK A01 T02540019  RH  022%=      5-min Rain = 0
KVA1 271352Z 27012KT 26/02 A2998 RMK A01 T02550020  RH  021%=      5-min Rain = 0
KVA1 271353Z 27011KT 26/02 A2998 RMK A01 T02570019  RH  021%=      5-min Rain = 0
KVA1 271354Z 26010KT 26/02 A2998 RMK A01 T02570019  RH  021%=      5-min Rain = 0
KVA1 271355Z 27011KT 26/02 A2998 RMK A01 T02580020  RH  021%=      5-min Rain = 0
KVA1 271356Z 26012KT 26/02 A2998 RMK A01 T02580020  RH  021%=      5-min Rain = 0
KVA1 271357Z 27010KT 26/02 A2998 RMK A01 T02580020  RH  021%=      5-min Rain = 0
KVA1 271358Z 27012KT 26/02 A2998 RMK A01 T02580020  RH  021%=      5-min Rain = 0
KVA1 271359Z 27013KT 26/02 A2998 RMK A01 T02590020  RH  021%=      5-min Rain = 0
KVA1 271400Z 27011KT 26/02 A2998 RMK A01 T02590020  RH  021%=      5-min Rain = 0
KVA1 271401Z 27010G15KT 26/02 A2998 RMK A01 T02600021  RH  021%=      5-min Rain = 0
KVA1 271402Z 27011KT 26/02 A2998 RMK A01 T02600021  RH  021%=      5-min Rain = 0
KVA1 271403Z 27010KT 26/02 A2998 RMK A01 T02600021  RH  021%=      5-min Rain = 0
KVA1 271404Z 27010KT 26/02 A2998 RMK A01 T02600021  RH  021%=      5-min Rain = 0
KVA1 271405Z 27011KT 26/02 A2998 RMK A01 T02610021  RH  021%=      5-min Rain = 0
KVA1 271406Z 27013KT 26/02 A2998 RMK A01 T02610021  RH  021%=      5-min Rain = 0
KVA1 271407Z 27012KT 26/02 A2998 RMK A01 T02610020  RH  021%=      5-min Rain = 0
KVA1 271408Z 27011KT 26/02 A2998 RMK A01 T02620021  RH  021%=      5-min Rain = 0
KVA1 271409Z 27010KT 26/02 A2998 RMK A01 T02620022  RH  021%=      5-min Rain = 0
KVA1 271410Z 27011KT 26/02 A2998 RMK A01 T02620022  RH  021%=      5-min Rain = 0
KVA1 271411Z 27012KT 26/02 A2998 RMK A01 T02630022  RH  021%=      5-min Rain = 0
KVA1 271412Z 27012KT 26/02 A2998 RMK A01 T02630021  RH  021%=      5-min Rain = 0
KVA1 271413Z 27013KT 26/02 A2998 RMK A01 T02640021  RH  021%=      5-min Rain = 0
KVA1 271414Z 27013KT 27/02 A2998 RMK A01 T02650022  RH  021%=      5-min Rain = 0
KVA1 271415Z 27013KT 27/02 A2998 RMK A01 T02660021  RH  021%=      5-min Rain = 0
KVA1 271416Z 27013KT 27/02 A2998 RMK A01 T02660022  RH  020%=      5-min Rain = 0
KVA1 271417Z 27014KT 27/02 A2998 RMK A01 T02670021  RH  020%=      5-min Rain = 0
KVA1 271418Z 27015KT 27/02 A2998 RMK A01 T02670021  RH  020%=      5-min Rain = 0
KVA1 271419Z 26015KT 27/02 A2998 RMK A01 T02680020  RH  020%=      5-min Rain = 0
KVA1 271420Z 27013KT 27/02 A2998 RMK A01 T02680020  RH  020%=      5-min Rain = 0
KVA1 271421Z 27014KT 27/02 A2998 RMK A01 T02680020  RH  020%=      5-min Rain = 0
KVA1 271422Z 27011KT 27/02 A2998 RMK A01 T02690022  RH  020%=      5-min Rain = 0
KVA1 271423Z 26012KT 27/02 A2998 RMK A01 T02690022  RH  020%=      5-min Rain = 0
KVA1 271424Z 26013KT 27/02 A2998 RMK A01 T02690022  RH  020%=      5-min Rain = 0
KVA1 271425Z 27015KT 27/02 A2998 RMK A01 T02700021  RH  020%=      5-min Rain = 0
KVA1 271426Z 26015KT 27/02 A2998 RMK A01 T02700020  RH  020%=      5-min Rain = 0
KVA1 271427Z 26013KT 27/02 A2998 RMK A01 T02700021  RH  020%=      5-min Rain = 0
KVA1 271428Z 26014KT 27/02 A2998 RMK A01 T02710021  RH  020%=      5-min Rain = 0
KVA1 271429Z 26011KT 27/02 A2998 RMK A01 T02710022  RH  020%=      5-min Rain = 0
KVA1 271430Z 26012KT 27/02 A2998 RMK A01 T02720023  RH  020%=      5-min Rain = 0
KVA1 271431Z 26012G17KT 27/02 A2998 RMK A01 T02720022  RH  020%=      5-min Rain = 0
KVA1 271432Z 26014KT 27/02 A2998 RMK A01 T02720022  RH  020%=      5-min Rain = 0
KVA1 271433Z 26014G19KT 27/02 A2998 RMK A01 T02730021  RH  020%=      5-min Rain = 0
KVA1 271434Z 26015KT 27/02 A2998 RMK A01 T02730021  RH  020%=      5-min Rain = 0
KVA1 271435Z 26010KT 27/02 A2998 RMK A01 T02730022  RH  020%=      5-min Rain = 0
KVA1 271436Z 26012KT 27/02 A2998 RMK A01 T02740023  RH  020%=      5-min Rain = 0
KVA1 271437Z 26012G18KT 27/02 A2998 RMK A01 T02740022  RH  020%=      5-min Rain = 0
KVA1 271438Z 25010KT 27/02 A2998 RMK A01 T02740022  RH  020%=      5-min Rain = 0
KVA1 271439Z 26013KT 28/02 A2998 RMK A01 T02750023  RH  020%=      5-min Rain = 0
KVA1 271440Z 26011KT 28/02 A2998 RMK A01 T02750022  RH  019%=      5-min Rain = 0
KVA1 271441Z 27010KT 28/02 A2998 RMK A01 T02760023  RH  019%=      5-min Rain = 0
KVA1 271442Z 31007G13KT 28/02 A2999 RMK A01 T02770024  RH  020%=      5-min Rain = 0
KVA1 271443Z 32005KT 28/03 A2999 RMK A01 T02770027  RH  020%=      5-min Rain = 0
KVA1 271444Z 03002KT 28/03 A2999 RMK A01 T02760025  RH  020%=      5-min Rain = 0
KVA1 271445Z 03003KT 28/03 A2998 RMK A01 T02760025  RH  020%=      5-min Rain = 0
KVA1 271446Z 05003KT 28/03 A2998 RMK A01 T02770026  RH  020%=      5-min Rain = 0
KVA1 271447Z 05003KT 28/03 A2999 RMK A01 T02770028  RH  020%=      5-min Rain = 0
KVA1 271448Z 08002KT 28/02 A2999 RMK A01 T02770023  RH  019%=      5-min Rain = 0
KVA1 271449Z 09003KT 28/02 A2999 RMK A01 T02780023  RH  019%=      5-min Rain = 0
KVA1 271450Z 06003KT 28/03 A2999 RMK A01 T02800025  RH  019%=      5-min Rain = 0
KVA1 271451Z 04002KT 28/02 A2999 RMK A01 T02820023  RH  019%=      5-min Rain = 0
KVA1 271452Z 03004KT 28/02 A2999 RMK A01 T02830023  RH  019%=      5-min Rain = 0
KVA1 271453Z 05005KT 28/03 A2999 RMK A01 T02830027  RH  019%=      5-min Rain = 0
KVA1 271454Z 05006KT 28/03 A2999 RMK A01 T02830028  RH  019%=      5-min Rain = 0
KVA1 271455Z 05007KT 28/03 A2999 RMK A01 T02810030  RH  020%=      5-min Rain = 0
KVA1 271456Z 05007KT 28/03 A2999 RMK A01 T02780029  RH  020%=      5-min Rain = 0
KVA1 271457Z 05008KT 28/03 A2999 RMK A01 T02770027  RH  020%=      5-min Rain = 0
KVA1 271458Z 06008KT 28/03 A2999 RMK A01 T02760025  RH  020%=      5-min Rain = 0
KVA1 271459Z 06006KT 27/03 A2999 RMK A01 T02740027  RH  020%=      5-min Rain = 0
KVA1 271500Z 05006KT 28/03 A2999 RMK A01 T02750028  RH  020%=      5-min Rain = 0
KVA1 271501Z 05008KT 28/03 A2999 RMK A01 T02760026  RH  020%=      5-min Rain = 0
KVA1 271502Z 05007KT 28/02 A2999 RMK A01 T02750024  RH  020%=      5-min Rain = 0
KVA1 271503Z 05005KT 27/03 A2999 RMK A01 T02740025  RH  020%=      5-min Rain = 0
KVA1 271504Z 04006KT 27/03 A2999 RMK A01 T02740027  RH  020%=      5-min Rain = 0
KVA1 271505Z 04008KT 28/03 A30 RMK A01 T02750026  RH  020%=      5-min Rain = 0
KVA1 271506Z 05007KT 27/02 A30 RMK A01 T02740023  RH  020%=      5-min Rain = 0
KVA1 271507Z 06007KT 27/02 A30 RMK A01 T02730024  RH  020%=      5-min Rain = 0
KVA1 271508Z 06007KT 27/02 A30 RMK A01 T02710024  RH  020%=      5-min Rain = 0
KVA1 271509Z 04007KT 27/02 A30 RMK A01 T02710024  RH  020%=      5-min Rain = 0
KVA1 271510Z 05006KT 27/02 A30 RMK A01 T02700023  RH  020%=      5-min Rain = 0
KVA1 271511Z 04007KT 27/02 A30 RMK A01 T02700024  RH  020%=      5-min Rain = 0
KVA1 271512Z 04007KT 27/02 A30 RMK A01 T02710023  RH  020%=      5-min Rain = 0
KVA1 271513Z 04008KT 27/02 A30 RMK A01 T02700023  RH  020%=      5-min Rain = 0
KVA1 271514Z 05007KT 27/02 A30 RMK A01 T02700023  RH  020%=      5-min Rain = 0
KVA1 271515Z 05006KT 27/02 A30 RMK A01 T02700024  RH  020%=      5-min Rain = 0
KVA1 271516Z 06006KT 27/02 A30 RMK A01 T02700023  RH  020%=      5-min Rain = 0
KVA1 271517Z 06005KT 27/02 A30 RMK A01 T02700024  RH  020%=      5-min Rain = 0
KVA1 271518Z 04006KT 27/03 A30 RMK A01 T02710027  RH  021%=      5-min Rain = 0
KVA1 271519Z 04008KT 27/03 A30 RMK A01 T02730027  RH  021%=      5-min Rain = 0
KVA1 271520Z 04007KT 27/03 A30 RMK A01 T02730025  RH  020%=      5-min Rain = 0
KVA1 271521Z 04007KT 27/03 A30 RMK A01 T02700025  RH  020%=      5-min Rain = 0
KVA1 271522Z 05007KT 27/03 A30 RMK A01 T02700025  RH  021%=      5-min Rain = 0
KVA1 271523Z 05007KT 27/03 A30 RMK A01 T02700025  RH  021%=      5-min Rain = 0
KVA1 271524Z 05007KT 27/03 A30 RMK A01 T02700026  RH  021%=      5-min Rain = 0
KVA1 271525Z 05006KT 27/03 A30 RMK A01 T02690026  RH  021%=      5-min Rain = 0
KVA1 271526Z 04005KT 27/03 A30 RMK A01 T02690027  RH  021%=      5-min Rain = 0
KVA1 271527Z 05006KT 27/03 A30 RMK A01 T02710026  RH  021%=      5-min Rain = 0
KVA1 271528Z 04006KT 27/03 A30 RMK A01 T02710026  RH  021%=      5-min Rain = 0
KVA1 271529Z 03005KT 27/03 A30 RMK A01 T02710027  RH  021%=      5-min Rain = 0
KVA1 271530Z 06005KT 27/03 A30 RMK A01 T02720027  RH  021%=      5-min Rain = 0
KVA1 271531Z 05004KT 27/03 A30 RMK A01 T02730026  RH  020%=      5-min Rain = 0
KVA1 271532Z 05005KT 27/03 A30 RMK A01 T02740026  RH  020%=      5-min Rain = 0
KVA1 271533Z 04004KT 27/03 A30 RMK A01 T02740026  RH  020%=      5-min Rain = 0
KVA1 271534Z 04005KT 27/03 A3001 RMK A01 T02730026  RH  020%=      5-min Rain = 0
KVA1 271535Z 04004KT 27/03 A3001 RMK A01 T02720027  RH  021%=      5-min Rain = 0
KVA1 271536Z 04006KT 27/03 A3001 RMK A01 T02720026  RH  020%=      5-min Rain = 0
KVA1 271537Z 05004KT 27/03 A3001 RMK A01 T02710025  RH  020%=      5-min Rain = 0
KVA1 271538Z 06003KT 27/03 A3001 RMK A01 T02720025  RH  020%=      5-min Rain = 0
KVA1 271539Z 03003KT 28/03 A3001 RMK A01 T02750029  RH  020%=      5-min Rain = 0
KVA1 271540Z 03003KT 28/03 A3001 RMK A01 T02780029  RH  020%=      5-min Rain = 0
KVA1 271541Z 04003KT 28/03 A3001 RMK A01 T02810029  RH  020%=      5-min Rain = 0
KVA1 271542Z 05004KT 28/03 A3001 RMK A01 T02820029  RH  020%=      5-min Rain = 0
KVA1 271543Z 04006KT 28/03 A3001 RMK A01 T02810029  RH  020%=      5-min Rain = 0
KVA1 271544Z 03004KT 28/03 A3001 RMK A01 T02790026  RH  020%=      5-min Rain = 0
KVA1 271545Z 04004KT 28/03 A3001 RMK A01 T02770028  RH  020%=      5-min Rain = 0
KVA1 271546Z 06004KT 28/03 A3001 RMK A01 T02770028  RH  020%=      5-min Rain = 0
KVA1 271547Z 06004KT 28/03 A3001 RMK A01 T02780029  RH  020%=      5-min Rain = 0
KVA1 271548Z 06004KT 28/03 A3001 RMK A01 T02800028  RH  020%=      5-min Rain = 0
KVA1 271549Z 05004KT 28/03 A3001 RMK A01 T02810026  RH  019%=      5-min Rain = 0
KVA1 271550Z 05004KT 28/03 A3001 RMK A01 T02800026  RH  020%=      5-min Rain = 0
KVA1 271551Z 05004KT 28/03 A3001 RMK A01 T02810026  RH  019%=      5-min Rain = 0
KVA1 271552Z 06005KT 28/03 A3001 RMK A01 T02820025  RH  019%=      5-min Rain = 0
KVA1 271553Z 06004KT 28/02 A3001 RMK A01 T02800024  RH  019%=      5-min Rain = 0
KVA1 271554Z 03004KT 28/02 A3001 RMK A01 T02780023  RH  019%=      5-min Rain = 0
KVA1 271555Z 03003KT 28/02 A3001 RMK A01 T02780024  RH  019%=      5-min Rain = 0
KVA1 271556Z 04004KT 28/03 A3001 RMK A01 T02800027  RH  020%=      5-min Rain = 0
KVA1 271557Z 04005KT 28/03 A3001 RMK A01 T02830025  RH  019%=      5-min Rain = 0
KVA1 271558Z 05005KT 28/03 A3001 RMK A01 T02830025  RH  019%=      5-min Rain = 0
KVA1 271559Z 05003KT 28/03 A3001 RMK A01 T02820025  RH  019%=      5-min Rain = 0
KVA1 271600Z 04004KT 28/03 A3001 RMK A01 T02830026  RH  019%=      5-min Rain = 0
KVA1 271601Z 03004KT 28/02 A3001 RMK A01 T02830024  RH  019%=      5-min Rain = 0
KVA1 271602Z 03003KT 28/02 A3001 RMK A01 T02820023  RH  019%=      5-min Rain = 0
KVA1 271603Z 05004KT 28/03 A3001 RMK A01 T02810025  RH  019%=      5-min Rain = 0
KVA1 271604Z 06005KT 28/03 A3001 RMK A01 T02820026  RH  019%=      5-min Rain = 0
KVA1 271605Z 06004KT 28/03 A3001 RMK A01 T02830026  RH  019%=      5-min Rain = 0
KVA1 271606Z 04004KT 28/03 A3001 RMK A01 T02830027  RH  019%=      5-min Rain = 0
KVA1 271607Z 04002KT 28/03 A3001 RMK A01 T02830026  RH  019%=      5-min Rain = 0
KVA1 271608Z 05004KT 28/03 A3001 RMK A01 T02840028  RH  019%=      5-min Rain = 0
KVA1 271609Z 04004KT 29/03 A3001 RMK A01 T02860026  RH  019%=      5-min Rain = 0
KVA1 271610Z 07004KT 29/03 A3001 RMK A01 T02860028  RH  019%=      5-min Rain = 0
KVA1 271611Z 08004KT 29/03 A3001 RMK A01 T02860027  RH  019%=      5-min Rain = 0
KVA1 271612Z 10003KT 29/03 A3001 RMK A01 T02870027  RH  019%=      5-min Rain = 0
KVA1 271613Z 07005KT 29/03 A3001 RMK A01 T02890031  RH  019%=      5-min Rain = 0
KVA1 271614Z 08003KT 29/03 A3001 RMK A01 T02900030  RH  019%=      5-min Rain = 0
KVA1 271615Z 07002KT 29/03 A3001 RMK A01 T02900031  RH  019%=      5-min Rain = 0
KVA1 271616Z 06003KT 29/03 A3001 RMK A01 T02900031  RH  019%=      5-min Rain = 0
KVA1 271617Z 03002KT 29/03 A3001 RMK A01 T02910030  RH  019%=      5-min Rain = 0
KVA1 271618Z 05002KT 29/03 A3001 RMK A01 T02930031  RH  019%=      5-min Rain = 0
KVA1 271619Z 04002KT 29/03 A3001 RMK A01 T02940030  RH  019%=      5-min Rain = 0
KVA1 271620Z 04002KT 29/03 A3001 RMK A01 T02940030  RH  019%=      5-min Rain = 0
KVA1 271621Z 08003KT 29/03 A3001 RMK A01 T02940030  RH  018%=      5-min Rain = 0
KVA1 271622Z 11003KT 29/03 A3001 RMK A01 T02940029  RH  018%=      5-min Rain = 0
KVA1 271623Z 08002KT 29/03 A3001 RMK A01 T02940030  RH  019%=      5-min Rain = 0
KVA1 271624Z 06002KT 30/03 A3001 RMK A01 T02950027  RH  018%=      5-min Rain = 0
KVA1 271625Z 05003KT 30/03 A3001 RMK A01 T02950027  RH  018%=      5-min Rain = 0
KVA1 271626Z 06001KT 30/03 A3001 RMK A01 T02950026  RH  018%=      5-min Rain = 0
KVA1 271627Z 02001KT 30/03 A3001 RMK A01 T02950027  RH  018%=      5-min Rain = 0
KVA1 271628Z 03002KT 30/03 A3001 RMK A01 T02950026  RH  018%=      5-min Rain = 0
KVA1 271629Z 06004KT 30/03 A3001 RMK A01 T02970031  RH  018%=      5-min Rain = 0
KVA1 271630Z 06004KT 30/03 A3001 RMK A01 T03000029  RH  018%=      5-min Rain = 0
KVA1 271631Z 07002KT 30/03 A3001 RMK A01 T03000030  RH  018%=      5-min Rain = 0
KVA1 271632Z 13000KT 30/03 A3001 RMK A01 T03000029  RH  018%=      5-min Rain = 0
KVA1 271633Z 08001KT 30/03 A3001 RMK A01 T03000028  RH  018%=      5-min Rain = 0
KVA1 271634Z 06003KT 30/03 A3001 RMK A01 T02990027  RH  018%=      5-min Rain = 0
KVA1 271635Z 06002KT 30/03 A3001 RMK A01 T02990027  RH  018%=      5-min Rain = 0
KVA1 271636Z 03002KT 30/03 A3001 RMK A01 T02980026  RH  018%=      5-min Rain = 0
KVA1 271637Z 04003KT 30/03 A3001 RMK A01 T02980026  RH  018%=      5-min Rain = 0
KVA1 271638Z 07002KT 30/03 A3001 RMK A01 T02980027  RH  018%=      5-min Rain = 0
KVA1 271639Z 12003KT 30/03 A3001 RMK A01 T03000027  RH  017%=      5-min Rain = 0
KVA1 271640Z 07003KT 30/03 A3001 RMK A01 T03020029  RH  018%=      5-min Rain = 0
KVA1 271641Z 07003KT 30/03 A3001 RMK A01 T03040030  RH  017%=      5-min Rain = 0
KVA1 271642Z 06003KT 31/03 A3001 RMK A01 T03060032  RH  017%=      5-min Rain = 0
KVA1 271643Z 04002KT 31/03 A3001 RMK A01 T03080030  RH  017%=      5-min Rain = 0
KVA1 271644Z 12001KT 31/03 A3001 RMK A01 T03080031  RH  017%=      5-min Rain = 0
KVA1 271645Z 05002KT 31/03 A3001 RMK A01 T03100031  RH  017%=      5-min Rain = 0
KVA1 271646Z 06003KT 31/03 A3001 RMK A01 T03110030  RH  017%=      5-min Rain = 0
KVA1 271647Z 08004KT 31/03 A3001 RMK A01 T03110032  RH  017%=      5-min Rain = 0
KVA1 271648Z 09004KT 31/03 A3001 RMK A01 T03100030  RH  017%=      5-min Rain = 0
KVA1 271649Z 09003KT 31/03 A3001 RMK A01 T03080029  RH  017%=      5-min Rain = 0
KVA1 271650Z 10004KT 31/03 A3001 RMK A01 T03080029  RH  017%=      5-min Rain = 0
KVA1 271651Z 11003KT 31/03 A3001 RMK A01 T03070029  RH  017%=      5-min Rain = 0
KVA1 271652Z 12002KT 31/03 A3001 RMK A01 T03090029  RH  017%=      5-min Rain = 0
KVA1 271653Z 10002KT 31/03 A3001 RMK A01 T03110030  RH  017%=      5-min Rain = 0
KVA1 271654Z 10004KT 31/03 A3001 RMK A01 T03130028  RH  016%=      5-min Rain = 0
KVA1 271655Z 08004KT 31/03 A3001 RMK A01 T03140029  RH  016%=      5-min Rain = 0
KVA1 271656Z 08004KT 31/03 A3001 RMK A01 T03130030  RH  017%=      5-min Rain = 0
KVA1 271657Z 05003KT 31/03 A3001 RMK A01 T03130030  RH  017%=      5-min Rain = 0
KVA1 271658Z 05003KT 31/03 A3001 RMK A01 T03130028  RH  016%=      5-min Rain = 0
KVA1 271659Z 07003KT 31/03 A3001 RMK A01 T03120029  RH  017%=      5-min Rain = 0
KVA1 271700Z 06004KT 31/03 A3001 RMK A01 T03120030  RH  017%=      5-min Rain = 0
KVA1 271701Z 06003KT 31/03 A3001 RMK A01 T03130029  RH  017%=      5-min Rain = 0
KVA1 271702Z 03006KT 31/03 A3001 RMK A01 T03130030  RH  017%=      5-min Rain = 0
KVA1 271703Z 03005KT 31/03 A3001 RMK A01 T03120029  RH  016%=      5-min Rain = 0
KVA1 271704Z 04005KT 31/03 A3001 RMK A01 T03140030  RH  017%=      5-min Rain = 0
KVA1 271705Z 04004KT 32/03 A3001 RMK A01 T03150029  RH  016%=      5-min Rain = 0
KVA1 271706Z 02003KT 32/03 A3001 RMK A01 T03150029  RH  016%=      5-min Rain = 0
KVA1 271707Z 04004KT 32/03 A3001 RMK A01 T03160030  RH  016%=      5-min Rain = 0
KVA1 271708Z 05004KT 32/03 A3001 RMK A01 T03180029  RH  016%=      5-min Rain = 0
KVA1 271709Z 04003KT 32/03 A3001 RMK A01 T03190028  RH  016%=      5-min Rain = 0
KVA1 271710Z 05002KT 32/03 A3001 RMK A01 T03170027  RH  016%=      5-min Rain = 0
KVA1 271711Z 06003KT 32/03 A3001 RMK A01 T03170027  RH  016%=      5-min Rain = 0
KVA1 271712Z 07002KT 32/03 A3001 RMK A01 T03150025  RH  016%=      5-min Rain = 0
KVA1 271713Z 06001KT 31/03 A30 RMK A01 T03130025  RH  016%=      5-min Rain = 0
KVA1 271714Z 11002KT 31/03 A30 RMK A01 T03140026  RH  016%=      5-min Rain = 0
KVA1 271715Z 12001KT 31/03 A30 RMK A01 T03140026  RH  016%=      5-min Rain = 0
KVA1 271716Z 08002KT 32/03 A30 RMK A01 T03160026  RH  016%=      5-min Rain = 0
KVA1 271717Z 05003KT 32/03 A30 RMK A01 T03170027  RH  016%=      5-min Rain = 0
KVA1 271718Z 04005KT 32/03 A30 RMK A01 T03190026  RH  016%=      5-min Rain = 0
KVA1 271719Z 35001KT 32/02 A30 RMK A01 T03180024  RH  015%=      5-min Rain = 0
KVA1 271720Z 33001KT 32/03 A30 RMK A01 T03170026  RH  016%=      5-min Rain = 0
KVA1 271721Z 33001KT 32/03 A30 RMK A01 T03200026  RH  015%=      5-min Rain = 0
KVA1 271722Z 32001KT 32/02 A30 RMK A01 T03200024  RH  015%=      5-min Rain = 0
KVA1 271723Z 23001KT 32/02 A30 RMK A01 T03190024  RH  015%=      5-min Rain = 0
KVA1 271724Z 17003KT 32/02 A30 RMK A01 T03180024  RH  015%=      5-min Rain = 0
KVA1 271725Z 18004KT 32/02 A30 RMK A01 T03180023  RH  015%=      5-min Rain = 0
KVA1 271726Z 21004KT 32/02 A30 RMK A01 T03200024  RH  015%=      5-min Rain = 0
KVA1 271727Z 21004KT 32/02 A30 RMK A01 T03220023  RH  015%=      5-min Rain = 0
KVA1 271728Z 16002KT 32/02 A30 RMK A01 T03220022  RH  015%=      5-min Rain = 0
KVA1 271729Z 07004KT 32/03 A30 RMK A01 T03230025  RH  015%=      5-min Rain = 0
KVA1 271730Z 01003KT 33/02 A30 RMK A01 T03260024  RH  015%=      5-min Rain = 0
KVA1 271731Z 03004KT 33/02 A30 RMK A01 T03280023  RH  014%=      5-min Rain = 0
KVA1 271732Z 03005KT 33/02 A30 RMK A01 T03300024  RH  014%=      5-min Rain = 0
KVA1 271733Z 02005KT 33/03 A30 RMK A01 T03310025  RH  014%=      5-min Rain = 0
KVA1 271734Z 02004KT 33/02 A30 RMK A01 T03310024  RH  014%=      5-min Rain = 0
KVA1 271735Z 35002KT 33/02 A30 RMK A01 T03280023  RH  014%=      5-min Rain = 0
KVA1 271736Z 01003KT 33/02 A30 RMK A01 T03270023  RH  015%=      5-min Rain = 0
KVA1 271737Z 01002KT 33/03 A30 RMK A01 T03250025  RH  015%=      5-min Rain = 0
KVA1 271738Z 05001KT 33/03 A30 RMK A01 T03250025  RH  015%=      5-min Rain = 0
KVA1 271739Z 27003KT 33/03 A30 RMK A01 T03270026  RH  015%=      5-min Rain = 0
KVA1 271740Z 23003KT 33/02 A2999 RMK A01 T03290024  RH  014%=      5-min Rain = 0
KVA1 271741Z 25004KT 33/02 A2999 RMK A01 T03320024  RH  014%=      5-min Rain = 0
KVA1 271742Z 32009KT 34/03 A2999 RMK A01 T03380029  RH  014%=      5-min Rain = 0
KVA1 271743Z 34010KT 34/03 A2999 RMK A01 T03430030  RH  014%=      5-min Rain = 0
KVA1 271744Z 33006KT 34/03 A2999 RMK A01 T03390026  RH  014%=      5-min Rain = 0
KVA1 271745Z 03004KT 34/03 A2999 RMK A01 T03350025  RH  014%=      5-min Rain = 0
KVA1 271746Z 04006KT 34/03 A2999 RMK A01 T03350028  RH  014%=      5-min Rain = 0
KVA1 271747Z 03004KT 34/03 A2999 RMK A01 T03370028  RH  014%=      5-min Rain = 0
KVA1 271748Z 02004KT 34/03 A2999 RMK A01 T03380026  RH  014%=      5-min Rain = 0
KVA1 271749Z 06003KT 34/02 A2999 RMK A01 T03380024  RH  014%=      5-min Rain = 0
KVA1 271750Z 25008G16KT 34/02 A2998 RMK A01 T03370023  RH  014%=      5-min Rain = 0
KVA1 271751Z 01009G14KT 34/03 A2999 RMK A01 T03400029  RH  014%=      5-min Rain = 0
KVA1 271752Z 35006KT 34/03 A30 RMK A01 T03430026  RH  014%=      5-min Rain = 0
KVA1 271753Z 31009KT 34/02 A30 RMK A01 T03430024  RH  013%=      5-min Rain = 0
KVA1 271754Z 30009KT 34/02 A30 RMK A01 T03430019  RH  013%=      5-min Rain = 0
KVA1 271755Z 29009KT 34/02 A30 RMK A01 T03440021  RH  013%=      5-min Rain = 0
KVA1 271756Z 30007KT 35/02 A2999 RMK A01 T03460020  RH  013%=      5-min Rain = 0
KVA1 271757Z 28004KT 34/02 A2999 RMK A01 T03430019  RH  013%=      5-min Rain = 0
KVA1 271758Z 28006KT 35/02 A2999 RMK A01 T03450022  RH  013%=      5-min Rain = 0
KVA1 271759Z 27007KT 35/02 A2999 RMK A01 T03460019  RH  013%=      5-min Rain = 0
KVA1 271800Z 27009KT 34/02 A2999 RMK A01 T03440018  RH  013%=      5-min Rain = 0
KVA1 271801Z 28012KT 35/02 A2999 RMK A01 T03450021  RH  013%=      5-min Rain = 0
KVA1 271802Z 27009KT 35/02 A2999 RMK A01 T03450016  RH  013%=      5-min Rain = 0
KVA1 271803Z 28008KT 34/02 A2999 RMK A01 T03420017  RH  013%=      5-min Rain = 0
KVA1 271804Z 30009KT 34/02 A2999 RMK A01 T03420018  RH  013%=      5-min Rain = 0
KVA1 271805Z 32012G19KT 34/02 A2999 RMK A01 T03430020  RH  013%=      5-min Rain = 0
KVA1 271806Z 31013KT 35/02 A2999 RMK A01 T03460022  RH  013%=      5-min Rain = 0
KVA1 271807Z 31010KT 35/02 A2999 RMK A01 T03480021  RH  013%=      5-min Rain = 0
KVA1 271808Z 29011KT 35/02 A2999 RMK A01 T03450018  RH  013%=      5-min Rain = 0
KVA1 271809Z 30012KT 35/02 A2999 RMK A01 T03450022  RH  013%=      5-min Rain = 0
KVA1 271810Z 30010KT 35/02 A2999 RMK A01 T03470019  RH  013%=      5-min Rain = 0
KVA1 271811Z 30008KT 35/02 A2999 RMK A01 T03460019  RH  013%=      5-min Rain = 0
KVA1 271812Z 30011KT 35/02 A2999 RMK A01 T03470022  RH  013%=      5-min Rain = 0
KVA1 271813Z 31011G16KT 35/02 A2999 RMK A01 T03500022  RH  013%=      5-min Rain = 0
KVA1 271814Z 30011KT 35/02 A2999 RMK A01 T03490020  RH  013%=      5-min Rain = 0
KVA1 271815Z 29008KT 35/02 A2999 RMK A01 T03490022  RH  013%=      5-min Rain = 0
KVA1 271816Z 30008KT 35/02 A2999 RMK A01 T03490020  RH  013%=      5-min Rain = 0
KVA1 271817Z 29007KT 35/02 A2999 RMK A01 T03470018  RH  013%=      5-min Rain = 0
KVA1 271818Z 27007KT 35/02 A2998 RMK A01 T03450019  RH  013%=      5-min Rain = 0
KVA1 271819Z 31013G19KT 35/02 A2999 RMK A01 T03460021  RH  013%=      5-min Rain = 0
KVA1 271820Z 30011KT 35/02 A2999 RMK A01 T03470019  RH  013%=      5-min Rain = 0
KVA1 271821Z 29007KT 35/02 A2998 RMK A01 T03470019  RH  013%=      5-min Rain = 0
KVA1 271822Z 30008KT 35/02 A2998 RMK A01 T03470019  RH  013%=      5-min Rain = 0
KVA1 271823Z 31006KT 35/02 A2998 RMK A01 T03450018  RH  013%=      5-min Rain = 0
KVA1 271824Z 32007KT 35/02 A2998 RMK A01 T03450017  RH  013%=      5-min Rain = 0
KVA1 271825Z 32008KT 34/02 A2998 RMK A01 T03430017  RH  013%=      5-min Rain = 0
KVA1 271826Z 35008KT 34/02 A2998 RMK A01 T03430018  RH  013%=      5-min Rain = 0
KVA1 271827Z 31006KT 34/02 A2998 RMK A01 T03440019  RH  013%=      5-min Rain = 0
KVA1 271828Z 28005KT 35/02 A2998 RMK A01 T03470022  RH  013%=      5-min Rain = 0
KVA1 271829Z 27007KT 35/02 A2998 RMK A01 T03500021  RH  013%=      5-min Rain = 0
KVA1 271830Z 27008KT 35/02 A2998 RMK A01 T03520020  RH  012%=      5-min Rain = 0
KVA1 271831Z 28009KT 35/02 A2998 RMK A01 T03530022  RH  013%=      5-min Rain = 0
KVA1 271832Z 29010KT 35/02 A2998 RMK A01 T03540022  RH  012%=      5-min Rain = 0
KVA1 271833Z 30012KT 35/02 A2998 RMK A01 T03540021  RH  012%=      5-min Rain = 0
KVA1 271834Z 29008KT 35/02 A2998 RMK A01 T03520021  RH  012%=      5-min Rain = 0
KVA1 271835Z 30008KT 35/02 A2997 RMK A01 T03530021  RH  012%=      5-min Rain = 0
KVA1 271836Z 31007KT 35/02 A2997 RMK A01 T03510020  RH  012%=      5-min Rain = 0
KVA1 271837Z 32009KT 35/02 A2997 RMK A01 T03500019  RH  013%=      5-min Rain = 0
KVA1 271838Z 34011KT 35/02 A2997 RMK A01 T03500019  RH  012%=      5-min Rain = 0
KVA1 271839Z 33009KT 35/02 A2997 RMK A01 T03510019  RH  012%=      5-min Rain = 0
KVA1 271840Z 31007KT 35/02 A2997 RMK A01 T03530020  RH  012%=      5-min Rain = 0
KVA1 271841Z 30006KT 35/02 A2997 RMK A01 T03530019  RH  012%=      5-min Rain = 0
KVA1 271842Z 32010KT 35/02 A2997 RMK A01 T03510021  RH  013%=      5-min Rain = 0
KVA1 271843Z 31013KT 36/02 A2997 RMK A01 T03550023  RH  012%=      5-min Rain = 0
KVA1 271844Z 31009KT 36/02 A2997 RMK A01 T03560020  RH  012%=      5-min Rain = 0
KVA1 271845Z 30013KT 35/02 A2997 RMK A01 T03520019  RH  012%=      5-min Rain = 0
KVA1 271846Z 30010KT 35/02 A2997 RMK A01 T03510019  RH  012%=      5-min Rain = 0
KVA1 271847Z 30012G17KT 35/02 A2997 RMK A01 T03500019  RH  012%=      5-min Rain = 0
KVA1 271848Z 30013KT 35/02 A2997 RMK A01 T03510019  RH  012%=      5-min Rain = 0
KVA1 271849Z 30009KT 35/02 A2997 RMK A01 T03510018  RH  012%=      5-min Rain = 0
KVA1 271850Z 30006KT 35/02 A2997 RMK A01 T03500018  RH  012%=      5-min Rain = 0
KVA1 271851Z 29010KT 35/02 A2997 RMK A01 T03540021  RH  012%=      5-min Rain = 0
KVA1 271852Z 27010KT 36/02 A2997 RMK A01 T03580021  RH  012%=      5-min Rain = 0
KVA1 271853Z 27009KT 36/02 A2996 RMK A01 T03570018  RH  012%=      5-min Rain = 0
KVA1 271854Z 27012G18KT 36/02 A2997 RMK A01 T03570020  RH  012%=      5-min Rain = 0
KVA1 271855Z 26013KT 36/02 A2996 RMK A01 T03570017  RH  012%=      5-min Rain = 0
KVA1 271856Z 26013KT 36/02 A2996 RMK A01 T03550017  RH  012%=      5-min Rain = 0
KVA1 271857Z 27015KT 35/02 A2996 RMK A01 T03540016  RH  012%=      5-min Rain = 0
KVA1 271858Z 27012KT 35/02 A2996 RMK A01 T03520015  RH  012%=      5-min Rain = 0
KVA1 271859Z 29013KT 35/02 A2996 RMK A01 T03520016  RH  012%=      5-min Rain = 0
KVA1 271900Z 28012KT 35/02 A2996 RMK A01 T03500016  RH  012%=      5-min Rain = 0
KVA1 271901Z 28008KT 35/02 A2996 RMK A01 T03490016  RH  012%=      5-min Rain = 0
KVA1 271902Z 28011KT 35/02 A2996 RMK A01 T03470016  RH  012%=      5-min Rain = 0
KVA1 271903Z 28010KT 35/02 A2996 RMK A01 T03460017  RH  013%=      5-min Rain = 0
KVA1 271904Z 27006KT 35/02 A2996 RMK A01 T03460015  RH  012%=      5-min Rain = 0
KVA1 271905Z 30007KT 35/02 A2996 RMK A01 T03450016  RH  012%=      5-min Rain = 0
KVA1 271906Z 33006KT 35/02 A2996 RMK A01 T03480019  RH  013%=      5-min Rain = 0
KVA1 271907Z 30008KT 36/02 A2996 RMK A01 T03550022  RH  012%=      5-min Rain = 0
KVA1 271908Z 28008G13KT 36/02 A2996 RMK A01 T03570018  RH  012%=      5-min Rain = 0
KVA1 271909Z 29009G14KT 35/01 A2996 RMK A01 T03510013  RH  012%=      5-min Rain = 0
KVA1 271910Z 31011KT 35/02 A2996 RMK A01 T03520018  RH  012%=      5-min Rain = 0
KVA1 271911Z 32010KT 35/02 A2996 RMK A01 T03520017  RH  012%=      5-min Rain = 0
KVA1 271912Z 30012KT 35/02 A2995 RMK A01 T03540018  RH  012%=      5-min Rain = 0
KVA1 271913Z 31012KT 35/02 A2995 RMK A01 T03520015  RH  012%=      5-min Rain = 0
KVA1 271914Z 30011KT 35/02 A2995 RMK A01 T03500015  RH  012%=      5-min Rain = 0
KVA1 271915Z 31010KT 35/01 A2995 RMK A01 T03500014  RH  012%=      5-min Rain = 0
KVA1 271916Z 33007KT 35/01 A2995 RMK A01 T03500014  RH  012%=      5-min Rain = 0
KVA1 271917Z 31010KT 35/02 A2995 RMK A01 T03530017  RH  012%=      5-min Rain = 0
KVA1 271918Z 29010KT 36/02 A2995 RMK A01 T03570018  RH  012%=      5-min Rain = 0
KVA1 271919Z 27013G18KT 36/02 A2995 RMK A01 T03580016  RH  012%=      5-min Rain = 0
KVA1 271920Z 26008KT 36/01 A2995 RMK A01 T03570014  RH  012%=      5-min Rain = 0
KVA1 271921Z 27009KT 36/02 A2995 RMK A01 T03570015  RH  012%=      5-min Rain = 0
KVA1 271922Z 32008G13KT 36/02 A2995 RMK A01 T03600017  RH  012%=      5-min Rain = 0
KVA1 271923Z 30011KT 36/02 A2995 RMK A01 T03610016  RH  011%=      5-min Rain = 0
KVA1 271924Z 32009KT 36/01 A2995 RMK A01 T03580013  RH  011%=      5-min Rain = 0
KVA1 271925Z 30013G19KT 36/01 A2995 RMK A01 T03560014  RH  012%=      5-min Rain = 0
KVA1 271926Z 29014KT 36/01 A2995 RMK A01 T03560012  RH  011%=      5-min Rain = 0
KVA1 271927Z 28012KT 35/01 A2995 RMK A01 T03530009  RH  011%=      5-min Rain = 0
KVA1 271928Z 28009KT 35/01 A2995 RMK A01 T03520012  RH  012%=      5-min Rain = 0
KVA1 271929Z 27009KT 35/01 A2995 RMK A01 T03520010  RH  012%=      5-min Rain = 0
KVA1 271930Z 28011KT 35/01 A2995 RMK A01 T03500010  RH  012%=      5-min Rain = 0
KVA1 271931Z 28011G17KT 35/01 A2995 RMK A01 T03530012  RH  012%=      5-min Rain = 0
KVA1 271932Z 29008KT 36/01 A2995 RMK A01 T03550012  RH  011%=      5-min Rain = 0
KVA1 271933Z 29009KT 36/01 A2995 RMK A01 T03570013  RH  011%=      5-min Rain = 0
KVA1 271934Z 29011G16KT 36/01 A2994 RMK A01 T03570010  RH  011%=      5-min Rain = 0
KVA1 271935Z 31013KT 36/01 A2994 RMK A01 T03570011  RH  011%=      5-min Rain = 0
KVA1 271936Z 28013KT 36/01 A2994 RMK A01 T03590012  RH  011%=      5-min Rain = 0
KVA1 271937Z 30010KT 36/01 A2994 RMK A01 T03590010  RH  011%=      5-min Rain = 0
KVA1 271938Z 29010KT 36/01 A2994 RMK A01 T03570010  RH  011%=      5-min Rain = 0
KVA1 271939Z 31010KT 36/01 A2994 RMK A01 T03560009  RH  011%=      5-min Rain = 0
KVA1 271940Z 29012KT 36/01 A2994 RMK A01 T03550008  RH  011%=      5-min Rain = 0
KVA1 271941Z 26010KT 35/01 A2994 RMK A01 T03540008  RH  011%=      5-min Rain = 0
KVA1 271942Z 27008KT 35/01 A2994 RMK A01 T03540009  RH  011%=      5-min Rain = 0
KVA1 271943Z 27011KT 36/01 A2994 RMK A01 T03570010  RH  011%=      5-min Rain = 0
KVA1 271944Z 28015G20KT 36/01 A2994 RMK A01 T03590009  RH  011%=      5-min Rain = 0
KVA1 271945Z 30014KT 36/01 A2994 RMK A01 T03600010  RH  011%=      5-min Rain = 0
KVA1 271946Z 30010KT 36/01 A2994 RMK A01 T03600009  RH  011%=      5-min Rain = 0
KVA1 271947Z 32011KT 36/01 A2994 RMK A01 T03580007  RH  011%=      5-min Rain = 0
KVA1 271948Z 29011G16KT 36/01 A2994 RMK A01 T03560007  RH  011%=      5-min Rain = 0
KVA1 271949Z 30007G12KT 36/01 A2994 RMK A01 T03600012  RH  011%=      5-min Rain = 0
KVA1 271950Z 30011G16KT 36/01 A2994 RMK A01 T03640012  RH  011%=      5-min Rain = 0
KVA1 271951Z 29016KT 37/01 A2994 RMK A01 T03650012  RH  011%=      5-min Rain = 0
KVA1 271952Z 30013KT 36/01 A2994 RMK A01 T03620009  RH  011%=      5-min Rain = 0
KVA1 271953Z 29013G18KT 36/01 A2994 RMK A01 T03590010  RH  011%=      5-min Rain = 0
KVA1 271954Z 29007KT 36/01 A2993 RMK A01 T03560007  RH  011%=      5-min Rain = 0
KVA1 271955Z 29013KT 36/01 A2993 RMK A01 T03550012  RH  011%=      5-min Rain = 0
KVA1 271956Z 28011KT 36/01 A2993 RMK A01 T03590011  RH  011%=      5-min Rain = 0
KVA1 271957Z 27012KT 36/01 A2993 RMK A01 T03600011  RH  011%=      5-min Rain = 0
KVA1 271958Z 27013KT 36/01 A2993 RMK A01 T03580009  RH  011%=      5-min Rain = 0
KVA1 271959Z 27010KT 36/01 A2993 RMK A01 T03570008  RH  011%=      5-min Rain = 0
KVA1 272000Z 27007KT 36/01 A2993 RMK A01 T03560009  RH  011%=      5-min Rain = 0
KVA1 272001Z 32008G14KT 36/01 A2993 RMK A01 T03560012  RH  011%=      5-min Rain = 0
KVA1 272002Z 30013KT 36/01 A2993 RMK A01 T03590011  RH  011%=      5-min Rain = 0
KVA1 272003Z 29012KT 36/01 A2993 RMK A01 T03580010  RH  011%=      5-min Rain = 0
KVA1 272004Z 28016G21KT 36/01 A2993 RMK A01 T03570011  RH  011%=      5-min Rain = 0
KVA1 272005Z 28013G18KT 36/01 A2993 RMK A01 T03590012  RH  011%=      5-min Rain = 0
KVA1 272006Z 28016KT 36/01 A2993 RMK A01 T03590011  RH  011%=      5-min Rain = 0
KVA1 272007Z 28012G17KT 36/01 A2993 RMK A01 T03570011  RH  011%=      5-min Rain = 0
KVA1 272008Z 27011KT 36/01 A2993 RMK A01 T03600013  RH  011%=      5-min Rain = 0
KVA1 272009Z 28011KT 36/01 A2993 RMK A01 T03580008  RH  011%=      5-min Rain = 0
KVA1 272010Z 27013G20KT 36/01 A2993 RMK A01 T03560010  RH  011%=      5-min Rain = 0
KVA1 272011Z 27012KT 36/01 A2993 RMK A01 T03590011  RH  011%=      5-min Rain = 0
KVA1 272012Z 28015G22KT 36/02 A2992 RMK A01 T03640015  RH  011%=      5-min Rain = 0
KVA1 272013Z 27018KT 36/01 A2993 RMK A01 T03640011  RH  011%=      5-min Rain = 0
KVA1 272014Z 27014KT 36/01 A2992 RMK A01 T03590010  RH  011%=      5-min Rain = 0
KVA1 272015Z 27012KT 36/01 A2992 RMK A01 T03580011  RH  011%=      5-min Rain = 0
KVA1 272016Z 27013KT 36/01 A2992 RMK A01 T03590012  RH  011%=      5-min Rain = 0
KVA1 272017Z 28013KT 36/01 A2992 RMK A01 T03580012  RH  011%=      5-min Rain = 0
KVA1 272018Z 28012KT 36/01 A2992 RMK A01 T03570012  RH  011%=      5-min Rain = 0
KVA1 272019Z 29013KT 36/01 A2992 RMK A01 T03570012  RH  011%=      5-min Rain = 0
KVA1 272020Z 31012KT 36/01 A2992 RMK A01 T03570012  RH  011%=      5-min Rain = 0
KVA1 272021Z 31015KT 36/01 A2992 RMK A01 T03570013  RH  011%=      5-min Rain = 0
KVA1 272022Z 31014KT 36/01 A2992 RMK A01 T03570012  RH  011%=      5-min Rain = 0
KVA1 272023Z 31011KT 36/01 A2992 RMK A01 T03570012  RH  011%=      5-min Rain = 0
KVA1 272024Z 32009KT 36/01 A2992 RMK A01 T03570014  RH  012%=      5-min Rain = 0
KVA1 272025Z 32011KT 36/01 A2991 RMK A01 T03590014  RH  011%=      5-min Rain = 0
KVA1 272026Z 31012KT 36/01 A2991 RMK A01 T03590012  RH  011%=      5-min Rain = 0
KVA1 272027Z 31007KT 36/01 A2992 RMK A01 T03600014  RH  011%=      5-min Rain = 0
KVA1 272028Z 29012G17KT 37/02 A2991 RMK A01 T03650017  RH  011%=      5-min Rain = 0
KVA1 272029Z 30014G20KT 37/02 A2992 RMK A01 T03660015  RH  011%=      5-min Rain = 0
KVA1 272030Z 31012G17KT 37/02 A2992 RMK A01 T03650015  RH  011%=      5-min Rain = 0
KVA1 272031Z 32011KT 36/01 A2991 RMK A01 T03630012  RH  011%=      5-min Rain = 0
KVA1 272032Z 31010KT 36/01 A2991 RMK A01 T03600012  RH  011%=      5-min Rain = 0
KVA1 272033Z 33013KT 36/01 A2991 RMK A01 T03590013  RH  011%=      5-min Rain = 0
KVA1 272034Z 31011KT 36/01 A2991 RMK A01 T03590013  RH  011%=      5-min Rain = 0
KVA1 272035Z 30012G17KT 36/01 A2991 RMK A01 T03580012  RH  011%=      5-min Rain = 0
KVA1 272036Z 28010KT 36/01 A2991 RMK A01 T03580013  RH  011%=      5-min Rain = 0
KVA1 272037Z 30011KT 36/01 A299 RMK A01 T03580014  RH  011%=      5-min Rain = 0
KVA1 272038Z 31013KT 36/01 A2991 RMK A01 T03590014  RH  011%=      5-min Rain = 0
KVA1 272039Z 30016G23KT 36/02 A2991 RMK A01 T03620016  RH  011%=      5-min Rain = 0
KVA1 272040Z 31014KT 36/01 A2991 RMK A01 T03620012  RH  011%=      5-min Rain = 0
KVA1 272041Z 31011KT 36/01 A2991 RMK A01 T03600011  RH  011%=      5-min Rain = 0
KVA1 272042Z 30012KT 36/01 A2991 RMK A01 T03570012  RH  011%=      5-min Rain = 0
KVA1 272043Z 29011G17KT 36/02 A2991 RMK A01 T03580015  RH  012%=      5-min Rain = 0
KVA1 272044Z 28009KT 36/02 A2991 RMK A01 T03610016  RH  011%=      5-min Rain = 0
KVA1 272045Z 29016G23KT 36/02 A2991 RMK A01 T03640015  RH  011%=      5-min Rain = 0
KVA1 272046Z 28015KT 36/01 A2991 RMK A01 T03600012  RH  011%=      5-min Rain = 0
KVA1 272047Z 27018KT 36/01 A2991 RMK A01 T03580013  RH  011%=      5-min Rain = 0
KVA1 272048Z 28015KT 36/01 A2991 RMK A01 T03580011  RH  011%=      5-min Rain = 0
KVA1 272049Z 30013KT 36/01 A2991 RMK A01 T03590011  RH  011%=      5-min Rain = 0
KVA1 272050Z 30010G15KT 36/01 A2991 RMK A01 T03580012  RH  011%=      5-min Rain = 0
KVA1 272051Z 29013KT 36/01 A2991 RMK A01 T03580012  RH  011%=      5-min Rain = 0
KVA1 272052Z 28013G18KT 36/01 A2991 RMK A01 T03590013  RH  011%=      5-min Rain = 0
KVA1 272053Z 29013KT 36/02 A2991 RMK A01 T03620015  RH  011%=      5-min Rain = 0
KVA1 272054Z 30010KT 36/02 A2991 RMK A01 T03640015  RH  011%=      5-min Rain = 0
KVA1 272055Z 28009KT 37/02 A2991 RMK A01 T03650015  RH  011%=      5-min Rain = 0
KVA1 272056Z 28012KT 37/02 A2991 RMK A01 T03670015  RH  011%=      5-min Rain = 0
KVA1 272057Z 29015KT 37/01 A2991 RMK A01 T03650013  RH  011%=      5-min Rain = 0
KVA1 272058Z 29018KT 36/01 A2991 RMK A01 T03620013  RH  011%=      5-min Rain = 0
KVA1 272059Z 29015KT 36/01 A2991 RMK A01 T03600012  RH  011%=      5-min Rain = 0
KVA1 272100Z 28010KT 36/01 A2991 RMK A01 T03560011  RH  011%=      5-min Rain = 0
KVA1 272101Z 29016G22KT 36/01 A2991 RMK A01 T03550012  RH  012%=      5-min Rain = 0
KVA1 272102Z 29016G21KT 36/01 A2991 RMK A01 T03550012  RH  012%=      5-min Rain = 0
KVA1 272103Z 28014G19KT 36/01 A2991 RMK A01 T03560013  RH  012%=      5-min Rain = 0
KVA1 272104Z 28010G16KT 36/01 A2991 RMK A01 T03560013  RH  012%=      5-min Rain = 0
KVA1 272105Z 27008KT 35/01 A299 RMK A01 T03540012  RH  012%=      5-min Rain = 0
KVA1 272106Z 26010KT 35/01 A299 RMK A01 T03540010  RH  011%=      5-min Rain = 0
KVA1 272107Z 28009KT 35/01 A299 RMK A01 T03540010  RH  011%=      5-min Rain = 0
KVA1 272108Z 29010KT 36/01 A299 RMK A01 T03550012  RH  012%=      5-min Rain = 0
KVA1 272109Z 28014KT 36/01 A2991 RMK A01 T03580013  RH  011%=      5-min Rain = 0
KVA1 272110Z 27011KT 36/01 A299 RMK A01 T03580009  RH  011%=      5-min Rain = 0
KVA1 272111Z 24011KT 36/01 A299 RMK A01 T03560007  RH  011%=      5-min Rain = 0
KVA1 272112Z 24010KT 36/01 A299 RMK A01 T03570009  RH  011%=      5-min Rain = 0
KVA1 272113Z 26012G18KT 36/01 A299 RMK A01 T03590012  RH  011%=      5-min Rain = 0
KVA1 272114Z 26014KT 36/01 A299 RMK A01 T03630014  RH  011%=      5-min Rain = 0
KVA1 272115Z 27014G20KT 36/01 A299 RMK A01 T03610013  RH  011%=      5-min Rain = 0
KVA1 272116Z 27015G21KT 36/01 A299 RMK A01 T03580011  RH  011%=      5-min Rain = 0
KVA1 272117Z 29015KT 36/01 A299 RMK A01 T03560011  RH  011%=      5-min Rain = 0
KVA1 272118Z 29015G20KT 36/01 A299 RMK A01 T03560011  RH  011%=      5-min Rain = 0
KVA1 272119Z 28013G18KT 36/01 A299 RMK A01 T03560011  RH  011%=      5-min Rain = 0
KVA1 272120Z 26011G16KT 36/01 A299 RMK A01 T03590013  RH  011%=      5-min Rain = 0
KVA1 272121Z 27016G23KT 36/01 A299 RMK A01 T03600010  RH  011%=      5-min Rain = 0
KVA1 272122Z 29015G20KT 36/01 A299 RMK A01 T03580010  RH  011%=      5-min Rain = 0
KVA1 272123Z 28012KT 36/01 A299 RMK A01 T03570010  RH  011%=      5-min Rain = 0
KVA1 272124Z 29013G18KT 36/01 A299 RMK A01 T03580011  RH  011%=      5-min Rain = 0
KVA1 272125Z 28010KT 36/01 A299 RMK A01 T03590012  RH  011%=      5-min Rain = 0
KVA1 272126Z 28014G19KT 36/01 A299 RMK A01 T03600013  RH  011%=      5-min Rain = 0
KVA1 272127Z 30014KT 36/01 A299 RMK A01 T03590011  RH  011%=      5-min Rain = 0
KVA1 272128Z 28012G18KT 36/01 A299 RMK A01 T03570011  RH  011%=      5-min Rain = 0
KVA1 272129Z 26009KT 36/01 A299 RMK A01 T03580010  RH  011%=      5-min Rain = 0
KVA1 272130Z 27006KT 36/01 A299 RMK A01 T03580010  RH  011%=      5-min Rain = 0
KVA1 272131Z 28011KT 36/01 A299 RMK A01 T03580011  RH  011%=      5-min Rain = 0
KVA1 272132Z 30010G15KT 36/01 A299 RMK A01 T03600012  RH  011%=      5-min Rain = 0
KVA1 272133Z 29009KT 36/01 A299 RMK A01 T03600010  RH  011%=      5-min Rain = 0
KVA1 272134Z 27007KT 36/01 A299 RMK A01 T03580011  RH  011%=      5-min Rain = 0
KVA1 272135Z 25014KT 36/01 A299 RMK A01 T03590010  RH  011%=      5-min Rain = 0
KVA1 272136Z 25013G20KT 36/01 A299 RMK A01 T03580007  RH  011%=      5-min Rain = 0
KVA1 272137Z 26017KT 36/01 A299 RMK A01 T03580007  RH  011%=      5-min Rain = 0
KVA1 272138Z 27016G21KT 36/01 A299 RMK A01 T03570009  RH  011%=      5-min Rain = 0
KVA1 272139Z 27014G19KT 36/01 A299 RMK A01 T03560009  RH  011%=      5-min Rain = 0
KVA1 272140Z 27014KT 36/01 A299 RMK A01 T03560009  RH  011%=      5-min Rain = 0
KVA1 272141Z 27011KT 36/01 A299 RMK A01 T03550008  RH  011%=      5-min Rain = 0
KVA1 272142Z 27011KT 35/01 A299 RMK A01 T03530008  RH  011%=      5-min Rain = 0
KVA1 272143Z 27011G19KT 35/01 A299 RMK A01 T03530010  RH  011%=      5-min Rain = 0
KVA1 272144Z 27013G19KT 36/01 A299 RMK A01 T03560010  RH  011%=      5-min Rain = 0
KVA1 272145Z 27014KT 36/01 A299 RMK A01 T03570009  RH  011%=      5-min Rain = 0
KVA1 272146Z 28017KT 36/01 A299 RMK A01 T03570009  RH  011%=      5-min Rain = 0
KVA1 272147Z 27015KT 35/01 A299 RMK A01 T03540006  RH  011%=      5-min Rain = 0
KVA1 272148Z 27008KT 35/01 A299 RMK A01 T03520006  RH  011%=      5-min Rain = 0
KVA1 272149Z 28008KT 35/01 A299 RMK A01 T03530008  RH  011%=      5-min Rain = 0
KVA1 272150Z 27009KT 36/01 A299 RMK A01 T03550010  RH  011%=      5-min Rain = 0
KVA1 272151Z 29009KT 36/01 A299 RMK A01 T03560009  RH  011%=      5-min Rain = 0
KVA1 272152Z 27011G16KT 36/01 A299 RMK A01 T03560009  RH  011%=      5-min Rain = 0
KVA1 272153Z 27012KT 36/01 A299 RMK A01 T03570009  RH  011%=      5-min Rain = 0
KVA1 272154Z 28011KT 36/01 A299 RMK A01 T03550005  RH  011%=      5-min Rain = 0
KVA1 272155Z 31013KT 35/01 A299 RMK A01 T03540007  RH  011%=      5-min Rain = 0
KVA1 272156Z 29019KT 36/01 A299 RMK A01 T03550006  RH  011%=      5-min Rain = 0
KVA1 272157Z 27015KT 35/01 A299 RMK A01 T03540006  RH  011%=      5-min Rain = 0
KVA1 272158Z 26014KT 36/01 A299 RMK A01 T03550006  RH  011%=      5-min Rain = 0
KVA1 272159Z 27014G19KT 36/00 A299 RMK A01 T03550004  RH  011%=      5-min Rain = 0
KVA1 272200Z 27017KT 35/00 A299 RMK A01 T03540003  RH  011%=      5-min Rain = 0
KVA1 272201Z 27013KT 35/00 A299 RMK A01 T03530003  RH  011%=      5-min Rain = 0
KVA1 272202Z 25009KT 35/00 A299 RMK A01 T03520003  RH  011%=      5-min Rain = 0
KVA1 272203Z 24011KT 35/00 A299 RMK A01 T03530003  RH  011%=      5-min Rain = 0
KVA1 272204Z 25008KT 35/00 A299 RMK A01 T03520003  RH  011%=      5-min Rain = 0
KVA1 272205Z 25008KT 35/01 A299 RMK A01 T03540005  RH  011%=      5-min Rain = 0
KVA1 272206Z 26006KT 36/01 A299 RMK A01 T03570007  RH  011%=      5-min Rain = 0
KVA1 272207Z 26011KT 36/01 A299 RMK A01 T03600007  RH  011%=      5-min Rain = 0
KVA1 272208Z 25009G14KT 36/00 A299 RMK A01 T03590004  RH  011%=      5-min Rain = 0
KVA1 272209Z 25010KT 36/00 A299 RMK A01 T03580004  RH  011%=      5-min Rain = 0
KVA1 272210Z 25010KT 36/00 A299 RMK A01 T03560002  RH  011%=      5-min Rain = 0
KVA1 272211Z 25013KT 36/00 A299 RMK A01 T03560003  RH  011%=      5-min Rain = 0
KVA1 272212Z 25018KT 36/00 A2989 RMK A01 T03570002  RH  011%=      5-min Rain = 0
KVA1 272213Z 28015G21KT 36/00 A299 RMK A01 T03580002  RH  011%=      5-min Rain = 0
KVA1 272214Z 31009KT 36/00 A299 RMK A01 T03570003  RH  011%=      5-min Rain = 0
KVA1 272215Z 31007KT 36/00 A299 RMK A01 T03550003  RH  011%=      5-min Rain = 0
KVA1 272216Z 29009KT 36/01 A299 RMK A01 T03560006  RH  011%=      5-min Rain = 0
KVA1 272217Z 27009KT 36/01 A299 RMK A01 T03590007  RH  011%=      5-min Rain = 0
KVA1 272218Z 26010KT 36/00 A299 RMK A01 T03600002  RH  010%=      5-min Rain = 0
KVA1 272219Z 28012KT 36/00 A299 RMK A01 T035700-0  RH  010%=      5-min Rain = 0
KVA1 272220Z 29014KT 36/00 A299 RMK A01 T03560002  RH  011%=      5-min Rain = 0
KVA1 272221Z 28010KT 35/M00 A299 RMK A01 T03541002  RH  011%=      5-min Rain = 0
KVA1 272222Z 26011KT 35/00 A299 RMK A01 T03520000  RH  011%=      5-min Rain = 0
KVA1 272223Z 27013KT 35/M00 A299 RMK A01 T03531001  RH  011%=      5-min Rain = 0
KVA1 272224Z 28010KT 35/M00 A299 RMK A01 T03521001  RH  011%=      5-min Rain = 0
KVA1 272225Z 28014KT 35/00 A299 RMK A01 T03520001  RH  011%=      5-min Rain = 0
KVA1 272226Z 27011KT 35/M00 A299 RMK A01 T03521001  RH  011%=      5-min Rain = 0
KVA1 272227Z 28011KT 35/00 A299 RMK A01 T03530000  RH  011%=      5-min Rain = 0
KVA1 272228Z 27011KT 35/00 A299 RMK A01 T035300-0  RH  011%=      5-min Rain = 0
KVA1 272229Z 27009G14KT 35/M00 A299 RMK A01 T03511001  RH  011%=      5-min Rain = 0
KVA1 272230Z 28017G22KT 35/00 A299 RMK A01 T03520000  RH  011%=      5-min Rain = 0
KVA1 272231Z 27010KT 35/00 A299 RMK A01 T03530000  RH  011%=      5-min Rain = 0
KVA1 272232Z 27011KT 36/M00 A299 RMK A01 T03551001  RH  011%=      5-min Rain = 0
KVA1 272233Z 29009KT 35/M00 A299 RMK A01 T03541001  RH  011%=      5-min Rain = 0
KVA1 272234Z 28012G18KT 35/00 A299 RMK A01 T03540001  RH  011%=      5-min Rain = 0
KVA1 272235Z 28016KT 36/M00 A299 RMK A01 T03551002  RH  010%=      5-min Rain = 0
KVA1 272236Z 27014KT 35/M00 A299 RMK A01 T03531003  RH  010%=      5-min Rain = 0
KVA1 272237Z 28014G19KT 35/M00 A299 RMK A01 T03531003  RH  010%=      5-min Rain = 0
KVA1 272238Z 28015KT 35/M00 A299 RMK A01 T03521003  RH  010%=      5-min Rain = 0
KVA1 272239Z 27012KT 35/M00 A299 RMK A01 T03511004  RH  010%=      5-min Rain = 0
KVA1 272240Z 27016KT 35/M00 A299 RMK A01 T03501003  RH  011%=      5-min Rain = 0
KVA1 272241Z 27015KT 35/M00 A299 RMK A01 T03501004  RH  011%=      5-min Rain = 0
KVA1 272242Z 28011KT 35/M00 A299 RMK A01 T03491004  RH  011%=      5-min Rain = 0
KVA1 272243Z 28012KT 35/M00 A299 RMK A01 T03511002  RH  011%=      5-min Rain = 0
KVA1 272244Z 27008KT 35/M00 A299 RMK A01 T03511002  RH  011%=      5-min Rain = 0
KVA1 272245Z 28009KT 35/M00 A299 RMK A01 T03531001  RH  011%=      5-min Rain = 0
KVA1 272246Z 27009G15KT 35/M00 A299 RMK A01 T03541003  RH  010%=      5-min Rain = 0
KVA1 272247Z 30011KT 35/M00 A299 RMK A01 T03541002  RH  010%=      5-min Rain = 0
KVA1 272248Z 29010G17KT 36/M00 A299 RMK A01 T03551002  RH  010%=      5-min Rain = 0
KVA1 272249Z 28013G18KT 36/M00 A299 RMK A01 T03551003  RH  010%=      5-min Rain = 0
KVA1 272250Z 28018KT 35/M01 A299 RMK A01 T03531005  RH  010%=      5-min Rain = 0
KVA1 272251Z 29013G19KT 35/M01 A299 RMK A01 T03491007  RH  010%=      5-min Rain = 0
KVA1 272252Z 29014G19KT 35/M00 A299 RMK A01 T03501004  RH  011%=      5-min Rain = 0
KVA1 272253Z 29013G18KT 35/M01 A299 RMK A01 T03501005  RH  010%=      5-min Rain = 0
KVA1 272254Z 29015G20KT 35/M01 A299 RMK A01 T03501005  RH  010%=      5-min Rain = 0
KVA1 272255Z 27017KT 35/M01 A299 RMK A01 T03501005  RH  010%=      5-min Rain = 0
KVA1 272256Z 28012G19KT 35/M01 A299 RMK A01 T03491006  RH  010%=      5-min Rain = 0
KVA1 272257Z 28013KT 35/M00 A299 RMK A01 T03481004  RH  011%=      5-min Rain = 0
KVA1 272258Z 27016G21KT 35/M01 A299 RMK A01 T03481007  RH  010%=      5-min Rain = 0
KVA1 272259Z 26016KT 35/M01 A299 RMK A01 T03461007  RH  011%=      5-min Rain = 0
KVA1 272300Z 27015KT 35/M01 A2991 RMK A01 T03471007  RH  011%=      5-min Rain = 0
KVA1 272301Z 28013KT 35/M01 A2991 RMK A01 T03471008  RH  010%=      5-min Rain = 0
KVA1 272302Z 27008KT 35/M01 A299 RMK A01 T03461006  RH  011%=      5-min Rain = 0
KVA1 272303Z 27010KT 35/M01 A299 RMK A01 T03471006  RH  011%=      5-min Rain = 0
KVA1 272304Z 28015KT 35/M01 A2991 RMK A01 T03491006  RH  010%=      5-min Rain = 0
KVA1 272305Z 28016KT 35/M01 A2991 RMK A01 T03481007  RH  010%=      5-min Rain = 0
KVA1 272306Z 28011G16KT 35/M01 A2991 RMK A01 T03471007  RH  011%=      5-min Rain = 0
KVA1 272307Z 29012KT 35/M01 A2991 RMK A01 T03471007  RH  011%=      5-min Rain = 0
KVA1 272308Z 28008KT 35/M01 A2991 RMK A01 T03461008  RH  010%=      5-min Rain = 0
KVA1 272309Z 29008KT 35/M01 A2991 RMK A01 T03471006  RH  011%=      5-min Rain = 0
KVA1 272310Z 31013KT 35/M01 A2991 RMK A01 T03481006  RH  011%=      5-min Rain = 0
KVA1 272311Z 31013KT 35/M01 A2991 RMK A01 T03481007  RH  010%=      5-min Rain = 0
KVA1 272312Z 30011KT 35/M01 A2991 RMK A01 T03471009  RH  010%=      5-min Rain = 0
KVA1 272313Z 29007KT 35/M01 A2991 RMK A01 T03461008  RH  011%=      5-min Rain = 0
KVA1 272314Z 30010KT 35/M01 A2991 RMK A01 T03461007  RH  011%=      5-min Rain = 0
KVA1 272315Z 29007KT 35/M01 A2991 RMK A01 T03481005  RH  011%=      5-min Rain = 0
KVA1 272316Z 28011KT 35/M01 A2991 RMK A01 T03491005  RH  011%=      5-min Rain = 0
KVA1 272317Z 27011KT 35/M01 A2991 RMK A01 T03481008  RH  010%=      5-min Rain = 0
KVA1 272318Z 27011KT 35/M01 A2991 RMK A01 T03461010  RH  010%=      5-min Rain = 0
KVA1 272319Z 24011KT 35/M01 A2991 RMK A01 T03451010  RH  010%=      5-min Rain = 0
KVA1 272320Z 26012KT 35/M01 A2991 RMK A01 T03461009  RH  010%=      5-min Rain = 0
KVA1 272321Z 27015KT 35/M01 A2991 RMK A01 T03461009  RH  010%=      5-min Rain = 0
KVA1 272322Z 27015KT 35/M01 A2991 RMK A01 T03471009  RH  010%=      5-min Rain = 0
KVA1 272323Z 28011KT 35/M01 A2991 RMK A01 T03451009  RH  010%=      5-min Rain = 0
KVA1 272324Z 29011KT 35/M01 A2991 RMK A01 T03451008  RH  011%=      5-min Rain = 0
KVA1 272325Z 30009G16KT 35/M01 A2991 RMK A01 T03451009  RH  010%=      5-min Rain = 0
KVA1 272326Z 31013KT 35/M01 A2991 RMK A01 T03451008  RH  011%=      5-min Rain = 0
KVA1 272327Z 30012KT 35/M01 A2991 RMK A01 T03461009  RH  010%=      5-min Rain = 0
KVA1 272328Z 30012KT 35/M01 A2991 RMK A01 T03451010  RH  010%=      5-min Rain = 0
KVA1 272329Z 31009KT 34/M01 A2991 RMK A01 T03441010  RH  010%=      5-min Rain = 0
KVA1 272330Z 31008KT 34/M01 A2991 RMK A01 T03441010  RH  010%=      5-min Rain = 0
KVA1 272331Z 30008KT 34/M01 A2991 RMK A01 T03441010  RH  010%=      5-min Rain = 0
KVA1 272332Z 31009KT 34/M01 A2991 RMK A01 T03441010  RH  010%=      5-min Rain = 0
KVA1 272333Z 30010KT 34/M01 A2991 RMK A01 T03441010  RH  010%=      5-min Rain = 0
KVA1 272334Z 32010KT 35/M01 A2991 RMK A01 T03451010  RH  010%=      5-min Rain = 0
KVA1 272335Z 31014KT 35/M01 A2991 RMK A01 T03451011  RH  010%=      5-min Rain = 0
KVA1 272336Z 31012KT 35/M01 A2991 RMK A01 T03451011  RH  010%=      5-min Rain = 0
KVA1 272337Z 31010KT 35/M01 A2991 RMK A01 T03451010  RH  010%=      5-min Rain = 0
KVA1 272338Z 32011KT 34/M01 A2991 RMK A01 T03441010  RH  010%=      5-min Rain = 0
KVA1 272339Z 31011KT 34/M01 A2991 RMK A01 T03441010  RH  010%=      5-min Rain = 0
KVA1 272340Z 30010KT 34/M01 A2991 RMK A01 T03431010  RH  010%=      5-min Rain = 0
KVA1 272341Z 31011KT 34/M01 A2991 RMK A01 T03421010  RH  011%=      5-min Rain = 0
KVA1 272342Z 30010KT 34/M01 A2991 RMK A01 T03421010  RH  011%=      5-min Rain = 0
KVA1 272343Z 29010KT 34/M01 A2991 RMK A01 T03421009  RH  011%=      5-min Rain = 0
KVA1 272344Z 30009KT 34/M01 A2991 RMK A01 T03421010  RH  011%=      5-min Rain = 0
KVA1 272345Z 30009KT 34/M01 A2991 RMK A01 T03421011  RH  011%=      5-min Rain = 0
KVA1 272346Z 30014KT 34/M01 A2991 RMK A01 T03421010  RH  011%=      5-min Rain = 0
KVA1 272347Z 30013KT 34/M01 A2991 RMK A01 T03411011  RH  011%=      5-min Rain = 0
KVA1 272348Z 28011KT 34/M01 A2991 RMK A01 T03401011  RH  011%=      5-min Rain = 0
KVA1 272349Z 28009KT 34/M01 A2991 RMK A01 T03401011  RH  011%=      5-min Rain = 0
KVA1 272350Z 30008KT 34/M01 A2991 RMK A01 T03401010  RH  011%=      5-min Rain = 0
KVA1 272351Z 29007KT 34/M01 A2991 RMK A01 T03401008  RH  011%=      5-min Rain = 0
KVA1 272352Z 30006KT 34/M01 A2991 RMK A01 T03411007  RH  011%=      5-min Rain = 0
KVA1 272353Z 29005KT 34/M01 A2991 RMK A01 T03421007  RH  011%=      5-min Rain = 0
KVA1 272354Z 29006KT 34/M01 A2991 RMK A01 T03421005  RH  011%=      5-min Rain = 0
KVA1 272355Z 29007KT 34/M01 A2991 RMK A01 T03421007  RH  011%=      5-min Rain = 0
KVA1 272356Z 30008KT 34/M01 A2991 RMK A01 T03421007  RH  011%=      5-min Rain = 0
KVA1 272357Z 30008KT 34/M01 A2991 RMK A01 T03421008  RH  011%=      5-min Rain = 0
KVA1 272358Z 31009KT 34/M01 A2991 RMK A01 T03411009  RH  011%=      5-min Rain = 0
KVA1 272359Z 30010KT 34/M01 A2991 RMK A01 T03401009  RH  011%=      5-min Rain = 0
KVA1 280000Z 30010KT 34/M01 A2991 RMK A01 T03401010  RH  011%=      5-min Rain = 0
KVA1 280001Z 30011KT 34/M01 A2991 RMK A01 T03391010  RH  011%=      5-min Rain = 0
KVA1 280002Z 30010KT 34/M01 A2991 RMK A01 T03391012  RH  011%=      5-min Rain = 0
KVA1 280003Z 30011KT 34/M01 A2991 RMK A01 T03381012  RH  011%=      5-min Rain = 0
KVA1 280004Z 32012KT 34/M01 A2991 RMK A01 T03381013  RH  011%=      5-min Rain = 0
KVA1 280005Z 31010KT 34/M01 A2991 RMK A01 T03381012  RH  011%=      5-min Rain = 0
KVA1 280006Z 31011KT 34/M01 A2991 RMK A01 T03381011  RH  011%=      5-min Rain = 0
KVA1 280007Z 30011KT 34/M01 A2991 RMK A01 T03371011  RH  011%=      5-min Rain = 0
KVA1 280008Z 31011KT 34/M01 A2991 RMK A01 T03371010  RH  011%=      5-min Rain = 0
KVA1 280009Z 30010KT 34/M01 A2991 RMK A01 T03361010  RH  011%=      5-min Rain = 0
KVA1 280010Z 30009KT 34/M01 A2991 RMK A01 T03361009  RH  011%=      5-min Rain = 0
KVA1 280011Z 30009KT 34/M01 A2991 RMK A01 T03361009  RH  011%=      5-min Rain = 0
KVA1 280012Z 30008KT 34/M01 A2991 RMK A01 T03361008  RH  011%=      5-min Rain = 0
KVA1 280013Z 30008KT 34/M01 A2991 RMK A01 T03361008  RH  011%=      5-min Rain = 0
KVA1 280014Z 30009KT 34/M01 A2991 RMK A01 T03351009  RH  011%=      5-min Rain = 0
KVA1 280015Z 29008KT 33/M01 A2991 RMK A01 T03341009  RH  011%=      5-min Rain = 0
KVA1 280016Z 29010KT 33/M01 A2991 RMK A01 T03341010  RH  011%=      5-min Rain = 0
KVA1 280017Z 29008KT 33/M01 A2991 RMK A01 T03331011  RH  011%=      5-min Rain = 0
KVA1 280018Z 29010KT 33/M01 A2991 RMK A01 T03341011  RH  011%=      5-min Rain = 0
KVA1 280019Z 29010KT 33/M01 A2991 RMK A01 T03331011  RH  011%=      5-min Rain = 0
KVA1 280020Z 30009KT 33/M01 A2991 RMK A01 T03331012  RH  011%=      5-min Rain = 0
KVA1 280021Z 31009KT 33/M01 A2991 RMK A01 T03331011  RH  011%=      5-min Rain = 0
KVA1 280022Z 30007KT 33/M01 A2991 RMK A01 T03321011  RH  011%=      5-min Rain = 0
KVA1 280023Z 31006KT 33/M01 A2991 RMK A01 T03321011  RH  011%=      5-min Rain = 0
KVA1 280024Z 31007KT 33/M01 A2991 RMK A01 T03311011  RH  011%=      5-min Rain = 0
KVA1 280025Z 32008KT 33/M01 A2991 RMK A01 T03311010  RH  011%=      5-min Rain = 0
KVA1 280026Z 32009KT 33/M01 A2991 RMK A01 T03301011  RH  011%=      5-min Rain = 0
KVA1 280027Z 31009KT 33/M01 A2991 RMK A01 T03301012  RH  011%=      5-min Rain = 0
KVA1 280028Z 32008KT 33/M01 A2991 RMK A01 T03301012  RH  011%=      5-min Rain = 0
KVA1 280029Z 32007KT 33/M01 A2991 RMK A01 T03291012  RH  011%=      5-min Rain = 0
KVA1 280030Z 31005KT 33/M01 A2991 RMK A01 T03291012  RH  011%=      5-min Rain = 0
KVA1 280031Z 31004KT 33/M01 A2991 RMK A01 T03281012  RH  011%=      5-min Rain = 0
KVA1 280032Z 31005KT 33/M01 A2991 RMK A01 T03271010  RH  011%=      5-min Rain = 0
KVA1 280033Z 31005KT 33/M01 A2991 RMK A01 T03251010  RH  012%=      5-min Rain = 0
KVA1 280034Z 32004KT 33/M01 A2991 RMK A01 T03251010  RH  012%=      5-min Rain = 0
KVA1 280035Z 31005KT 32/M01 A2991 RMK A01 T03231010  RH  012%=      5-min Rain = 0
KVA1 280036Z 30006KT 32/M01 A2991 RMK A01 T03231010  RH  012%=      5-min Rain = 0
KVA1 280037Z 30005KT 32/M01 A2991 RMK A01 T03221010  RH  012%=      5-min Rain = 0
KVA1 280038Z 30004KT 32/M01 A2991 RMK A01 T03211010  RH  012%=      5-min Rain = 0
KVA1 280039Z 30005KT 32/M01 A2991 RMK A01 T03201010  RH  012%=      5-min Rain = 0
KVA1 280040Z 31005KT 32/M01 A2991 RMK A01 T03181010  RH  012%=      5-min Rain = 0
KVA1 280041Z 31005KT 32/M01 A2991 RMK A01 T03181010  RH  012%=      5-min Rain = 0
KVA1 280042Z 31004KT 32/M01 A2991 RMK A01 T03181010  RH  012%=      5-min Rain = 0
KVA1 280043Z 30004KT 32/M01 A2991 RMK A01 T03161010  RH  012%=      5-min Rain = 0
KVA1 280044Z 30004KT 32/M01 A2991 RMK A01 T03151010  RH  012%=      5-min Rain = 0
KVA1 280045Z 31004KT 31/M01 A2992 RMK A01 T03141010  RH  012%=      5-min Rain = 0
KVA1 280046Z 31004KT 31/M01 A2992 RMK A01 T03131010  RH  012%=      5-min Rain = 0
KVA1 280047Z 31004KT 31/M01 A2992 RMK A01 T03111010  RH  013%=      5-min Rain = 0
KVA1 280048Z 31004KT 31/M01 A2992 RMK A01 T03101009  RH  013%=      5-min Rain = 0
KVA1 280049Z 31004KT 31/M01 A2992 RMK A01 T03091009  RH  013%=      5-min Rain = 0
KVA1 280050Z 30004KT 31/M01 A2992 RMK A01 T03081009  RH  013%=      5-min Rain = 0
KVA1 280051Z 29004KT 31/M01 A2992 RMK A01 T03071009  RH  013%=      5-min Rain = 0
KVA1 280052Z 29004KT 31/M01 A2992 RMK A01 T03061009  RH  013%=      5-min Rain = 0
KVA1 280053Z 29004KT 31/M01 A2992 RMK A01 T03051009  RH  013%=      5-min Rain = 0
KVA1 280054Z 31003KT 30/M01 A2992 RMK A01 T03041007  RH  013%=      5-min Rain = 0
KVA1 280055Z 31004KT 30/M01 A2992 RMK A01 T03031009  RH  013%=      5-min Rain = 0
KVA1 280056Z 31004KT 30/M01 A2992 RMK A01 T03021009  RH  013%=      5-min Rain = 0
KVA1 280057Z 30004KT 30/M01 A2992 RMK A01 T03011008  RH  013%=      5-min Rain = 0
KVA1 280058Z 30004KT 30/M01 A2992 RMK A01 T03001008  RH  014%=      5-min Rain = 0
KVA1 280059Z 31004KT 30/M01 A2992 RMK A01 T02981007  RH  014%=      5-min Rain = 0
KVA1 280100Z 31004KT 30/M01 A2992 RMK A01 T02971006  RH  014%=      5-min Rain = 0
KVA1 280101Z 31003KT 30/M01 A2992 RMK A01 T02951006  RH  014%=      5-min Rain = 0
KVA1 280102Z 29002KT 29/M01 A2992 RMK A01 T02921007  RH  014%=      5-min Rain = 0
KVA1 280103Z 29002KT 29/M01 A2992 RMK A01 T02921008  RH  014%=      5-min Rain = 0
KVA1 280104Z 29003KT 29/M01 A2992 RMK A01 T02911010  RH  014%=      5-min Rain = 0
KVA1 280105Z 28003KT 29/M01 A2992 RMK A01 T02921009  RH  014%=      5-min Rain = 0
KVA1 280106Z 27002KT 29/M01 A2992 RMK A01 T02921007  RH  014%=      5-min Rain = 0
KVA1 280107Z 27001KT 29/M01 A2992 RMK A01 T02911006  RH  015%=      5-min Rain = 0
KVA1 280108Z 27001KT 29/M01 A2992 RMK A01 T02901006  RH  015%=      5-min Rain = 0
KVA1 280109Z 28001KT 29/M00 A2992 RMK A01 T02891004  RH  015%=      5-min Rain = 0
KVA1 280110Z 30001KT 29/M00 A2992 RMK A01 T02871004  RH  015%=      5-min Rain = 0
KVA1 280111Z 30001KT 28/M01 A2992 RMK A01 T02841005  RH  015%=      5-min Rain = 0
KVA1 280112Z 29002KT 28/M01 A2992 RMK A01 T02831007  RH  015%=      5-min Rain = 0
KVA1 280113Z 28002KT 28/M01 A2992 RMK A01 T02811005  RH  015%=      5-min Rain = 0
KVA1 280114Z 29002KT 28/M01 A2992 RMK A01 T02801008  RH  015%=      5-min Rain = 0
KVA1 280115Z 29002KT 28/M01 A2992 RMK A01 T02801008  RH  015%=      5-min Rain = 0
KVA1 280116Z 29001KT 28/M01 A2992 RMK A01 T02801008  RH  015%=      5-min Rain = 0
KVA1 280117Z 28001KT 28/M01 A2992 RMK A01 T02811009  RH  015%=      5-min Rain = 0
KVA1 280118Z 26003KT 28/M01 A2992 RMK A01 T02821007  RH  015%=      5-min Rain = 0
KVA1 280119Z 27003KT 28/M01 A2992 RMK A01 T02821006  RH  015%=      5-min Rain = 0
KVA1 280120Z 27003KT 28/M01 A2992 RMK A01 T02801008  RH  015%=      5-min Rain = 0
KVA1 280121Z 27002KT 28/M01 A2992 RMK A01 T02811010  RH  015%=      5-min Rain = 0
KVA1 280122Z 28002KT 28/M01 A2992 RMK A01 T02831009  RH  015%=      5-min Rain = 0
KVA1 280123Z 27002KT 29/M01 A2992 RMK A01 T02851008  RH  015%=      5-min Rain = 0
KVA1 280124Z 27002KT 29/M01 A2992 RMK A01 T02851007  RH  015%=      5-min Rain = 0
KVA1 280125Z 27003KT 28/M01 A2992 RMK A01 T02841007  RH  015%=      5-min Rain = 0
KVA1 280126Z 26002KT 28/M01 A2992 RMK A01 T02821008  RH  015%=      5-min Rain = 0
KVA1 280127Z 26002KT 28/M01 A2992 RMK A01 T02811008  RH  015%=      5-min Rain = 0
KVA1 280128Z 26002KT 28/M01 A2992 RMK A01 T02801008  RH  015%=      5-min Rain = 0
KVA1 280129Z 26003KT 28/M01 A2992 RMK A01 T02791005  RH  016%=      5-min Rain = 0
KVA1 280130Z 26003KT 28/M01 A2992 RMK A01 T02761008  RH  016%=      5-min Rain = 0
KVA1 280131Z 26003KT 27/M01 A2992 RMK A01 T02731007  RH  016%=      5-min Rain = 0
KVA1 280132Z 26003KT 27/M01 A2992 RMK A01 T02721008  RH  016%=      5-min Rain = 0
KVA1 280133Z 26003KT 27/M01 A2992 RMK A01 T02701006  RH  016%=      5-min Rain = 0
KVA1 280134Z 27003KT 27/M01 A2992 RMK A01 T02681007  RH  016%=      5-min Rain = 0
KVA1 280135Z 27002KT 27/M01 A2992 RMK A01 T02661006  RH  017%=      5-min Rain = 0
KVA1 280136Z 27003KT 27/M01 A2992 RMK A01 T02651006  RH  017%=      5-min Rain = 0
KVA1 280137Z 28003KT 26/M00 A2992 RMK A01 T02641004  RH  017%=      5-min Rain = 0
KVA1 280138Z 28001KT 26/M01 A2992 RMK A01 T02631006  RH  017%=      5-min Rain = 0
KVA1 280139Z 28001KT 26/M01 A2992 RMK A01 T02631006  RH  017%=      5-min Rain = 0
KVA1 280140Z 28002KT 26/M01 A2992 RMK A01 T02631005  RH  017%=      5-min Rain = 0
KVA1 280141Z 28002KT 26/M00 A2992 RMK A01 T02631003  RH  017%=      5-min Rain = 0
KVA1 280142Z 28002KT 26/M01 A2993 RMK A01 T02611005  RH  017%=      5-min Rain = 0
KVA1 280143Z 28003KT 26/M00 A2993 RMK A01 T02601004  RH  018%=      5-min Rain = 0
KVA1 280144Z 29003KT 26/M00 A2993 RMK A01 T02591004  RH  018%=      5-min Rain = 0
KVA1 280145Z 29003KT 26/M01 A2993 RMK A01 T02571005  RH  018%=      5-min Rain = 0
KVA1 280146Z 29003KT 26/M00 A2993 RMK A01 T02561003  RH  018%=      5-min Rain = 0
KVA1 280147Z 29002KT 25/M00 A2993 RMK A01 T02541003  RH  018%=      5-min Rain = 0
KVA1 280148Z 29003KT 25/M00 A2993 RMK A01 T02531003  RH  019%=      5-min Rain = 0
KVA1 280149Z 29003KT 25/M00 A2993 RMK A01 T02521003  RH  019%=      5-min Rain = 0
KVA1 280150Z 29002KT 25/M00 A2993 RMK A01 T02511003  RH  019%=      5-min Rain = 0
KVA1 280151Z 30003KT 25/M00 A2993 RMK A01 T02501002  RH  019%=      5-min Rain = 0
KVA1 280152Z 29003KT 25/M00 A2993 RMK A01 T02491002  RH  019%=      5-min Rain = 0
KVA1 280153Z 29003KT 25/M00 A2993 RMK A01 T02481002  RH  019%=      5-min Rain = 0
KVA1 280154Z 29004KT 25/M00 A2993 RMK A01 T02471003  RH  019%=      5-min Rain = 0
KVA1 280155Z 28004KT 25/M00 A2993 RMK A01 T02461003  RH  019%=      5-min Rain = 0
KVA1 280156Z 29003KT 25/M00 A2993 RMK A01 T02451003  RH  019%=      5-min Rain = 0
KVA1 280157Z 30003KT 25/M00 A2993 RMK A01 T02451003  RH  019%=      5-min Rain = 0
KVA1 280158Z 30003KT 25/M00 A2993 RMK A01 T02451003  RH  019%=      5-min Rain = 0
KVA1 280159Z 28004KT 24/M00 A2993 RMK A01 T02441003  RH  019%=      5-min Rain = 0
KVA1 280200Z 28004KT 24/M00 A2993 RMK A01 T02441004  RH  019%=      5-min Rain = 0
KVA1 280201Z 27006KT 24/M00 A2993 RMK A01 T02441004  RH  019%=      5-min Rain = 0
KVA1 280202Z 27006KT 24/M00 A2993 RMK A01 T02441004  RH  019%=      5-min Rain = 0
KVA1 280203Z 26006KT 25/M01 A2993 RMK A01 T02451005  RH  019%=      5-min Rain = 0
KVA1 280204Z 26006KT 25/M01 A2993 RMK A01 T02451005  RH  019%=      5-min Rain = 0
KVA1 280205Z 26005KT 25/M01 A2993 RMK A01 T02461005  RH  019%=      5-min Rain = 0
KVA1 280206Z 26005KT 25/M01 A2993 RMK A01 T02461005  RH  019%=      5-min Rain = 0
KVA1 280207Z 26005KT 25/M01 A2993 RMK A01 T02461005  RH  019%=      5-min Rain = 0
KVA1 280208Z 27005KT 25/M00 A2993 RMK A01 T02461004  RH  019%=      5-min Rain = 0
KVA1 280209Z 27006KT 24/M00 A2993 RMK A01 T02441004  RH  019%=      5-min Rain = 0
KVA1 280210Z 27005KT 24/M00 A2993 RMK A01 T02431004  RH  019%=      5-min Rain = 0
KVA1 280211Z 27005KT 24/M00 A2993 RMK A01 T02431004  RH  020%=      5-min Rain = 0
KVA1 280212Z 27006KT 24/M00 A2993 RMK A01 T02421004  RH  020%=      5-min Rain = 0
KVA1 280213Z 27007KT 24/M00 A2993 RMK A01 T02411004  RH  020%=      5-min Rain = 0
KVA1 280214Z 28007KT 24/M00 A2993 RMK A01 T02411004  RH  020%=      5-min Rain = 0
KVA1 280215Z 28007KT 24/M00 A2993 RMK A01 T02401004  RH  020%=      5-min Rain = 0
KVA1 280216Z 28007KT 24/M00 A2993 RMK A01 T02401003  RH  020%=      5-min Rain = 0
KVA1 280217Z 28007KT 24/M00 A2993 RMK A01 T02391004  RH  020%=      5-min Rain = 0
KVA1 280218Z 28007KT 24/M00 A2994 RMK A01 T02391004  RH  020%=      5-min Rain = 0
KVA1 280219Z 28008KT 24/M00 A2994 RMK A01 T02401004  RH  020%=      5-min Rain = 0
KVA1 280220Z 28008KT 24/M00 A2994 RMK A01 T02401004  RH  020%=      5-min Rain = 0
KVA1 280221Z 28008KT 24/M00 A2994 RMK A01 T02411004  RH  020%=      5-min Rain = 0
KVA1 280222Z 28008KT 24/M00 A2994 RMK A01 T02421004  RH  020%=      5-min Rain = 0
KVA1 280223Z 27008KT 24/M01 A2994 RMK A01 T02431005  RH  020%=      5-min Rain = 0
KVA1 280224Z 27007KT 24/M01 A2994 RMK A01 T02441005  RH  019%=      5-min Rain = 0
KVA1 280225Z 26007KT 25/M01 A2994 RMK A01 T02461005  RH  019%=      5-min Rain = 0
KVA1 280226Z 26008KT 25/M01 A2994 RMK A01 T02491005  RH  019%=      5-min Rain = 0
KVA1 280227Z 26008KT 25/M01 A2994 RMK A01 T02501005  RH  019%=      5-min Rain = 0
KVA1 280228Z 27007KT 25/M01 A2994 RMK A01 T02521005  RH  018%=      5-min Rain = 0
KVA1 280229Z 27006KT 25/M01 A2994 RMK A01 T02541005  RH  018%=      5-min Rain = 0
KVA1 280230Z 27006KT 25/M01 A2994 RMK A01 T02541005  RH  018%=      5-min Rain = 0
KVA1 280231Z 27006KT 26/M01 A2994 RMK A01 T02551005  RH  018%=      5-min Rain = 0
KVA1 280232Z 27007KT 25/M01 A2994 RMK A01 T02541005  RH  018%=      5-min Rain = 0
KVA1 280233Z 27007KT 25/M01 A2994 RMK A01 T02541005  RH  018%=      5-min Rain = 0
KVA1 280234Z 27007KT 25/M01 A2994 RMK A01 T02541005  RH  018%=      5-min Rain = 0
KVA1 280235Z 28008KT 25/M01 A2994 RMK A01 T02541005  RH  018%=      5-min Rain = 0
KVA1 280236Z 28008KT 25/M01 A2994 RMK A01 T02531005  RH  018%=      5-min Rain = 0
KVA1 280237Z 27008KT 25/M01 A2994 RMK A01 T02541005  RH  018%=      5-min Rain = 0
KVA1 280238Z 27007KT 25/M01 A2994 RMK A01 T02541006  RH  018%=      5-min Rain = 0
KVA1 280239Z 27008KT 26/M01 A2994 RMK A01 T02551006  RH  018%=      5-min Rain = 0
KVA1 280240Z 27008KT 26/M01 A2994 RMK A01 T02551006  RH  018%=      5-min Rain = 0
KVA1 280241Z 27008KT 26/M01 A2994 RMK A01 T02561006  RH  018%=      5-min Rain = 0
KVA1 280242Z 27007KT 26/M01 A2994 RMK A01 T02571007  RH  018%=      5-min Rain = 0
KVA1 280243Z 27008KT 26/M01 A2994 RMK A01 T02591007  RH  017%=      5-min Rain = 0
KVA1 280244Z 27008KT 26/M01 A2994 RMK A01 T02601007  RH  017%=      5-min Rain = 0
KVA1 280245Z 27008KT 26/M01 A2994 RMK A01 T02611007  RH  017%=      5-min Rain = 0
KVA1 280246Z 27007KT 26/M01 A2994 RMK A01 T02621008  RH  017%=      5-min Rain = 0
KVA1 280247Z 28007KT 26/M01 A2994 RMK A01 T02631007  RH  017%=      5-min Rain = 0
KVA1 280248Z 28007KT 26/M01 A2994 RMK A01 T02641008  RH  017%=      5-min Rain = 0
KVA1 280249Z 28007KT 27/M01 A2994 RMK A01 T02651007  RH  017%=      5-min Rain = 0
KVA1 280250Z 27007KT 26/M01 A2994 RMK A01 T02641008  RH  017%=      5-min Rain = 0
KVA1 280251Z 27007KT 27/M01 A2994 RMK A01 T02651008  RH  017%=      5-min Rain = 0
KVA1 280252Z 27007KT 27/M01 A2994 RMK A01 T02651008  RH  017%=      5-min Rain = 0
KVA1 280253Z 27007KT 27/M01 A2994 RMK A01 T02651008  RH  017%=      5-min Rain = 0
KVA1 280254Z 28007KT 27/M01 A2994 RMK A01 T02651008  RH  017%=      5-min Rain = 0
KVA1 280255Z 27007KT 27/M01 A2994 RMK A01 T02651008  RH  017%=      5-min Rain = 0
KVA1 280256Z 27007KT 27/M01 A2994 RMK A01 T02651008  RH  017%=      5-min Rain = 0
KVA1 280257Z 27007KT 27/M01 A2994 RMK A01 T02651008  RH  017%=      5-min Rain = 0
KVA1 280258Z 27007KT 27/M01 A2994 RMK A01 T02651009  RH  017%=      5-min Rain = 0
KVA1 280259Z 27007KT 27/M01 A2994 RMK A01 T02661008  RH  016%=      5-min Rain = 0
KVA1 280300Z 27008KT 27/M01 A2994 RMK A01 T02671008  RH  016%=      5-min Rain = 0
KVA1 280301Z 27008KT 27/M01 A2994 RMK A01 T02691008  RH  016%=      5-min Rain = 0
KVA1 280302Z 26007KT 27/M01 A2994 RMK A01 T02711008  RH  016%=      5-min Rain = 0
KVA1 280303Z 26007KT 27/M01 A2994 RMK A01 T02721008  RH  016%=      5-min Rain = 0
KVA1 280304Z 26008KT 27/M01 A2994 RMK A01 T02731008  RH  016%=      5-min Rain = 0
KVA1 280305Z 27007KT 27/M01 A2994 RMK A01 T02731009  RH  016%=      5-min Rain = 0
KVA1 280306Z 26008KT 27/M01 A2995 RMK A01 T02741008  RH  016%=      5-min Rain = 0
KVA1 280307Z 26007KT 27/M01 A2994 RMK A01 T02741009  RH  016%=      5-min Rain = 0
KVA1 280308Z 26007KT 27/M01 A2995 RMK A01 T02741009  RH  016%=      5-min Rain = 0
KVA1 280309Z 26008KT 27/M01 A2995 RMK A01 T02741008  RH  016%=      5-min Rain = 0
KVA1 280310Z 26008KT 28/M01 A2995 RMK A01 T02751008  RH  016%=      5-min Rain = 0
KVA1 280311Z 27008KT 28/M01 A2995 RMK A01 T02751008  RH  016%=      5-min Rain = 0
KVA1 280312Z 27007KT 28/M01 A2995 RMK A01 T02761008  RH  016%=      5-min Rain = 0
KVA1 280313Z 26007KT 28/M01 A2995 RMK A01 T02771008  RH  016%=      5-min Rain = 0
KVA1 280314Z 26007KT 28/M01 A2995 RMK A01 T02761008  RH  016%=      5-min Rain = 0
KVA1 280315Z 26007KT 28/M01 A2995 RMK A01 T02761008  RH  016%=      5-min Rain = 0
KVA1 280316Z 27007KT 28/M01 A2995 RMK A01 T02761008  RH  016%=      5-min Rain = 0
KVA1 280317Z 26007KT 28/M01 A2995 RMK A01 T02761007  RH  016%=      5-min Rain = 0
KVA1 280318Z 26007KT 28/M01 A2995 RMK A01 T02761007  RH  016%=      5-min Rain = 0
KVA1 280319Z 26006KT 28/M01 A2995 RMK A01 T02761008  RH  016%=      5-min Rain = 0
KVA1 280320Z 26007KT 28/M01 A2995 RMK A01 T02761008  RH  016%=      5-min Rain = 0
KVA1 280321Z 26007KT 28/M01 A2995 RMK A01 T02761007  RH  016%=      5-min Rain = 0
KVA1 280322Z 26007KT 28/M01 A2995 RMK A01 T02751007  RH  016%=      5-min Rain = 0
KVA1 280323Z 26007KT 28/M01 A2995 RMK A01 T02751008  RH  016%=      5-min Rain = 0
KVA1 280324Z 26007KT 27/M01 A2995 RMK A01 T02741008  RH  016%=      5-min Rain = 0
KVA1 280325Z 25007KT 28/M01 A2995 RMK A01 T02751007  RH  016%=      5-min Rain = 0
KVA1 280326Z 25008KT 27/M01 A2995 RMK A01 T02741007  RH  016%=      5-min Rain = 0
KVA1 280327Z 26007KT 28/M01 A2995 RMK A01 T02751007  RH  016%=      5-min Rain = 0
KVA1 280328Z 26006KT 28/M01 A2995 RMK A01 T02751007  RH  016%=      5-min Rain = 0
KVA1 280329Z 26006KT 27/M01 A2995 RMK A01 T02741007  RH  016%=      5-min Rain = 0
KVA1 280330Z 26007KT 28/M01 A2995 RMK A01 T02751007  RH  016%=      5-min Rain = 0
KVA1 280331Z 26007KT 28/M01 A2995 RMK A01 T02761007  RH  016%=      5-min Rain = 0
KVA1 280332Z 26008KT 28/M01 A2995 RMK A01 T02771007  RH  016%=      5-min Rain = 0
KVA1 280333Z 26006KT 28/M01 A2995 RMK A01 T02781007  RH  016%=      5-min Rain = 0
KVA1 280334Z 26007KT 28/M01 A2995 RMK A01 T02781006  RH  016%=      5-min Rain = 0
KVA1 280335Z 26006KT 28/M01 A2995 RMK A01 T02781006  RH  016%=      5-min Rain = 0
KVA1 280336Z 25006KT 28/M01 A2995 RMK A01 T02781007  RH  016%=      5-min Rain = 0
KVA1 280337Z 25006KT 28/M01 A2995 RMK A01 T02781007  RH  016%=      5-min Rain = 0
KVA1 280338Z 25006KT 28/M01 A2995 RMK A01 T02771007  RH  016%=      5-min Rain = 0
KVA1 280339Z 26006KT 28/M01 A2995 RMK A01 T02771007  RH  016%=      5-min Rain = 0
KVA1 280340Z 25007KT 28/M01 A2995 RMK A01 T02761007  RH  016%=      5-min Rain = 0
KVA1 280341Z 25006KT 28/M01 A2995 RMK A01 T02761006  RH  016%=      5-min Rain = 0
KVA1 280342Z 25006KT 28/M01 A2995 RMK A01 T02751006  RH  016%=      5-min Rain = 0
KVA1 280343Z 25006KT 27/M01 A2995 RMK A01 T02741006  RH  016%=      5-min Rain = 0
KVA1 280344Z 25006KT 27/M01 A2995 RMK A01 T02741006  RH  016%=      5-min Rain = 0
KVA1 280345Z 25006KT 27/M01 A2995 RMK A01 T02731006  RH  016%=      5-min Rain = 0
KVA1 280346Z 25008KT 27/M01 A2995 RMK A01 T02731005  RH  016%=      5-min Rain = 0
KVA1 280347Z 25008KT 27/M01 A2995 RMK A01 T02721006  RH  016%=      5-min Rain = 0
KVA1 280348Z 25007KT 27/M01 A2995 RMK A01 T02731006  RH  016%=      5-min Rain = 0
KVA1 280349Z 25007KT 27/M01 A2995 RMK A01 T02731006  RH  016%=      5-min Rain = 0
KVA1 280350Z 26007KT 27/M01 A2995 RMK A01 T02731006  RH  016%=      5-min Rain = 0
KVA1 280351Z 25007KT 27/M01 A2995 RMK A01 T02731006  RH  016%=      5-min Rain = 0
KVA1 280352Z 26008KT 27/M01 A2995 RMK A01 T02741006  RH  016%=      5-min Rain = 0
KVA1 280353Z 26008KT 27/M01 A2995 RMK A01 T02741006  RH  016%=      5-min Rain = 0
KVA1 280354Z 25008KT 28/M01 A2995 RMK A01 T02751006  RH  016%=      5-min Rain = 0
KVA1 280355Z 26008KT 28/M01 A2995 RMK A01 T02761006  RH  016%=      5-min Rain = 0
KVA1 280356Z 26007KT 28/M01 A2995 RMK A01 T02761007  RH  016%=      5-min Rain = 0
KVA1 280357Z 26007KT 28/M01 A2995 RMK A01 T02761006  RH  016%=      5-min Rain = 0
KVA1 280358Z 26008KT 28/M01 A2995 RMK A01 T02761006  RH  016%=      5-min Rain = 0
KVA1 280359Z 26008KT 28/M01 A2995 RMK A01 T02761006  RH  016%=      5-min Rain = 0
KVA1 280400Z 26008KT 28/M01 A2995 RMK A01 T02761007  RH  016%=      5-min Rain = 0
KVA1 280401Z 26008KT 28/M01 A2995 RMK A01 T02761006  RH  016%=      5-min Rain = 0
KVA1 280402Z 26007KT 28/M01 A2995 RMK A01 T02761006  RH  016%=      5-min Rain = 0
KVA1 280403Z 26006KT 28/M01 A2995 RMK A01 T02761006  RH  016%=      5-min Rain = 0
KVA1 280404Z 26008KT 28/M01 A2995 RMK A01 T02761006  RH  016%=      5-min Rain = 0
KVA1 280405Z 26008KT 28/M01 A2995 RMK A01 T02781006  RH  016%=      5-min Rain = 0
KVA1 280406Z 26009KT 28/M01 A2995 RMK A01 T02781006  RH  016%=      5-min Rain = 0
KVA1 280407Z 26009KT 28/M01 A2995 RMK A01 T02781006  RH  016%=      5-min Rain = 0
KVA1 280408Z 26008KT 28/M01 A2995 RMK A01 T02781006  RH  016%=      5-min Rain = 0
KVA1 280409Z 26009KT 28/M01 A2995 RMK A01 T02781006  RH  016%=      5-min Rain = 0
KVA1 280410Z 26009KT 28/M01 A2995 RMK A01 T02781006  RH  016%=      5-min Rain = 0
KVA1 280411Z 26009KT 28/M01 A2995 RMK A01 T02781006  RH  016%=      5-min Rain = 0
KVA1 280412Z 26009KT 28/M01 A2995 RMK A01 T02791006  RH  016%=      5-min Rain = 0
KVA1 280413Z 26009KT 28/M01 A2995 RMK A01 T02791006  RH  016%=      5-min Rain = 0
KVA1 280414Z 26008KT 28/M01 A2995 RMK A01 T02791006  RH  016%=      5-min Rain = 0
KVA1 280415Z 25009KT 28/M01 A2995 RMK A01 T02801006  RH  016%=      5-min Rain = 0
KVA1 280416Z 26009KT 28/M01 A2995 RMK A01 T02791006  RH  016%=      5-min Rain = 0
KVA1 280417Z 25010KT 28/M01 A2995 RMK A01 T02801006  RH  016%=      5-min Rain = 0
KVA1 280418Z 25009KT 28/M01 A2995 RMK A01 T02801006  RH  015%=      5-min Rain = 0
KVA1 280419Z 26009KT 28/M01 A2995 RMK A01 T02801006  RH  016%=      5-min Rain = 0
KVA1 280420Z 26009KT 28/M01 A2995 RMK A01 T02801006  RH  015%=      5-min Rain = 0
KVA1 280421Z 26009KT 28/M01 A2995 RMK A01 T02801006  RH  015%=      5-min Rain = 0
KVA1 280422Z 26008KT 28/M01 A2995 RMK A01 T02801006  RH  015%=      5-min Rain = 0
KVA1 280423Z 26009KT 28/M01 A2995 RMK A01 T02801006  RH  015%=      5-min Rain = 0
KVA1 280424Z 26009KT 28/M01 A2995 RMK A01 T02801007  RH  015%=      5-min Rain = 0
KVA1 280425Z 26009KT 28/M01 A2995 RMK A01 T02811006  RH  015%=      5-min Rain = 0
KVA1 280426Z 26008KT 28/M01 A2995 RMK A01 T02801006  RH  015%=      5-min Rain = 0
KVA1 280427Z 26008KT 28/M01 A2995 RMK A01 T02801006  RH  015%=      5-min Rain = 0
KVA1 280428Z 26008KT 28/M01 A2995 RMK A01 T02791006  RH  016%=      5-min Rain = 0
KVA1 280429Z 26009KT 28/M01 A2995 RMK A01 T02791007  RH  016%=      5-min Rain = 0
KVA1 280430Z 26008KT 28/M01 A2995 RMK A01 T02801006  RH  015%=      5-min Rain = 0
KVA1 280431Z 26008KT 28/M01 A2995 RMK A01 T02801006  RH  015%=      5-min Rain = 0
KVA1 280432Z 26006KT 28/M01 A2995 RMK A01 T02791006  RH  015%=      5-min Rain = 0
KVA1 280433Z 26007KT 28/M01 A2995 RMK A01 T02791006  RH  016%=      5-min Rain = 0
KVA1 280434Z 26006KT 28/M01 A2995 RMK A01 T02791007  RH  016%=      5-min Rain = 0
KVA1 280435Z 26006KT 28/M01 A2995 RMK A01 T02791006  RH  016%=      5-min Rain = 0
KVA1 280436Z 27006KT 28/M01 A2995 RMK A01 T02791006  RH  016%=      5-min Rain = 0
KVA1 280437Z 28005KT 28/M01 A2995 RMK A01 T02781006  RH  016%=      5-min Rain = 0
KVA1 280438Z 29004KT 28/M01 A2995 RMK A01 T02791006  RH  016%=      5-min Rain = 0
KVA1 280439Z 30003KT 28/M01 A2996 RMK A01 T02791006  RH  016%=      5-min Rain = 0
KVA1 280440Z 30001KT 28/M01 A2996 RMK A01 T02781006  RH  016%=      5-min Rain = 0
KVA1 280441Z 10002KT 28/M00 A2996 RMK A01 T02761004  RH  016%=      5-min Rain = 0
KVA1 280442Z 13004KT 27/M00 A2996 RMK A01 T02721003  RH  017%=      5-min Rain = 0
KVA1 280443Z 14004KT 27/M00 A2996 RMK A01 T02671003  RH  017%=      5-min Rain = 0
KVA1 280444Z 15004KT 26/M00 A2996 RMK A01 T02641004  RH  017%=      5-min Rain = 0
KVA1 280445Z 15005KT 26/M00 A2996 RMK A01 T02611004  RH  018%=      5-min Rain = 0
KVA1 280446Z 16005KT 26/M00 A2996 RMK A01 T02591004  RH  018%=      5-min Rain = 0
KVA1 280447Z 15005KT 26/M00 A2996 RMK A01 T02591004  RH  018%=      5-min Rain = 0
KVA1 280448Z 18003KT 26/M00 A2996 RMK A01 T02591004  RH  018%=      5-min Rain = 0
KVA1 280449Z 18002KT 26/M01 A2996 RMK A01 T02601005  RH  018%=      5-min Rain = 0
KVA1 280450Z 18002KT 26/M01 A2996 RMK A01 T02601005  RH  017%=      5-min Rain = 0
KVA1 280451Z 26002KT 26/M01 A2996 RMK A01 T02611005  RH  017%=      5-min Rain = 0
KVA1 280452Z 24002KT 26/M01 A2996 RMK A01 T02631006  RH  017%=      5-min Rain = 0
KVA1 280453Z 26002KT 26/M01 A2996 RMK A01 T02631006  RH  017%=      5-min Rain = 0
KVA1 280454Z 25001KT 26/M01 A2996 RMK A01 T02641006  RH  017%=      5-min Rain = 0
KVA1 280455Z 21000KT 26/M01 A2996 RMK A01 T02641005  RH  017%=      5-min Rain = 0
KVA1 280456Z 26003KT 26/M01 A2996 RMK A01 T02631005  RH  017%=      5-min Rain = 0
KVA1 280457Z 25004KT 26/M01 A2996 RMK A01 T02621005  RH  017%=      5-min Rain = 0
KVA1 280458Z 28001KT 26/M01 A2996 RMK A01 T02611006  RH  017%=      5-min Rain = 0
KVA1 280459Z 08001KT 26/M01 A2996 RMK A01 T02591005  RH  018%=      5-min Rain = 0

Page generated in 0.2113 seconds.